<?xml version="1.0" encoding="UTF-8" standalone="no" ?><gpx xmlns="http://www.topografix.com/GPX/1/1" xmlns:gpxx="http://www.garmin.com/xmlschemas/GpxExtensions/v3" xmlns:wptx1="http://www.garmin.com/xmlschemas/WaypointExtension/v1" xmlns:gpxtpx="http://www.garmin.com/xmlschemas/TrackPointExtension/v1" creator="Dakota 20" version="1.1" xmlns:xsi="http://www.w3.org/2001/XMLSchema-instance" xsi:schemaLocation="http://www.topografix.com/GPX/1/1 http://www.topografix.com/GPX/1/1/gpx.xsd http://www.garmin.com/xmlschemas/GpxExtensions/v3 http://www8.garmin.com/xmlschemas/GpxExtensionsv3.xsd http://www.garmin.com/xmlschemas/WaypointExtension/v1 http://www8.garmin.com/xmlschemas/WaypointExtensionv1.xsd http://www.garmin.com/xmlschemas/TrackPointExtension/v1 http://www.garmin.com/xmlschemas/TrackPointExtensionv1.xsd"><metadata><link href="http://www.garmin.com"><text>Garmin International</text></link><time>2015-06-24T17:19:54Z</time></metadata><trk><name>Current Track: 24 JUN 2015 10:00</name><extensions><gpxx:TrackExtension><gpxx:DisplayColor>Cyan</gpxx:DisplayColor></gpxx:TrackExtension></extensions><trkseg><trkpt lat="51.7966555338" lon="-2.4241624866"><ele>11.67</ele><time>2015-06-24T09:00:40Z</time></trkpt><trkpt lat="51.7966528516" lon="-2.4241751432"><ele>12.15</ele><time>2015-06-24T09:01:13Z</time></trkpt><trkpt lat="51.7966583837" lon="-2.4241755623"><ele>11.67</ele><time>2015-06-24T09:01:34Z</time></trkpt><trkpt lat="51.7966649216" lon="-2.4241714552"><ele>11.19</ele><time>2015-06-24T09:01:50Z</time></trkpt><trkpt lat="51.7966702022" lon="-2.4241740536"><ele>11.67</ele><time>2015-06-24T09:02:13Z</time></trkpt><trkpt lat="51.7966752313" lon="-2.4241842795"><ele>12.15</ele><time>2015-06-24T09:02:39Z</time></trkpt><trkpt lat="51.7966737226" lon="-2.4241877161"><ele>11.67</ele><time>2015-06-24T09:03:03Z</time></trkpt><trkpt lat="51.7966730520" lon="-2.4241883028"><ele>11.19</ele><time>2015-06-24T09:03:32Z</time></trkpt><trkpt lat="51.7966577969" lon="-2.4242972676"><ele>11.67</ele><time>2015-06-24T09:03:59Z</time></trkpt><trkpt lat="51.7966308072" lon="-2.4243571144"><ele>8.31</ele><time>2015-06-24T09:04:04Z</time></trkpt><trkpt lat="51.7966055777" lon="-2.4243597966"><ele>11.67</ele><time>2015-06-24T09:04:06Z</time></trkpt><trkpt lat="51.7965925857" lon="-2.4243615568"><ele>12.63</ele><time>2015-06-24T09:04:07Z</time></trkpt><trkpt lat="51.7965508439" lon="-2.4243805837"><ele>12.15</ele><time>2015-06-24T09:04:10Z</time></trkpt><trkpt lat="51.7964298092" lon="-2.4243606348"><ele>11.19</ele><time>2015-06-24T09:04:20Z</time></trkpt><trkpt lat="51.7964030709" lon="-2.4243636522"><ele>13.12</ele><time>2015-06-24T09:04:23Z</time></trkpt><trkpt lat="51.7963749077" lon="-2.4243771471"><ele>11.67</ele><time>2015-06-24T09:04:26Z</time></trkpt><trkpt lat="51.7963489238" lon="-2.4244058132"><ele>10.71</ele><time>2015-06-24T09:04:30Z</time></trkpt><trkpt lat="51.7961491831" lon="-2.4245089106"><ele>12.15</ele><time>2015-06-24T09:04:49Z</time></trkpt><trkpt lat="51.7961325031" lon="-2.4245322123"><ele>11.19</ele><time>2015-06-24T09:04:51Z</time></trkpt><trkpt lat="51.7960643582" lon="-2.4246451166"><ele>11.19</ele><time>2015-06-24T09:05:00Z</time></trkpt><trkpt lat="51.7960232869" lon="-2.4247437716"><ele>12.63</ele><time>2015-06-24T09:05:07Z</time></trkpt><trkpt lat="51.7959496938" lon="-2.4248254113"><ele>12.15</ele><time>2015-06-24T09:05:25Z</time></trkpt><trkpt lat="51.7958684731" lon="-2.4249564204"><ele>12.63</ele><time>2015-06-24T09:05:37Z</time></trkpt><trkpt lat="51.7958489433" lon="-2.4249853380"><ele>11.19</ele><time>2015-06-24T09:05:39Z</time></trkpt><trkpt lat="51.7958234623" lon="-2.4250609428"><ele>11.67</ele><time>2015-06-24T09:05:44Z</time></trkpt><trkpt lat="51.7958209477" lon="-2.4250771198"><ele>10.71</ele><time>2015-06-24T09:05:45Z</time></trkpt><trkpt lat="51.7958004959" lon="-2.4251399841"><ele>12.63</ele><time>2015-06-24T09:05:49Z</time></trkpt><trkpt lat="51.7957688961" lon="-2.4251683149"><ele>12.15</ele><time>2015-06-24T09:05:52Z</time></trkpt><trkpt lat="51.7956724204" lon="-2.4253329355"><ele>11.67</ele><time>2015-06-24T09:06:08Z</time></trkpt><trkpt lat="51.7956268229" lon="-2.4254232924"><ele>12.63</ele><time>2015-06-24T09:06:15Z</time></trkpt><trkpt lat="51.7956147529" lon="-2.4254448339"><ele>11.19</ele><time>2015-06-24T09:06:17Z</time></trkpt><trkpt lat="51.7955152597" lon="-2.4255315866"><ele>11.67</ele><time>2015-06-24T09:06:27Z</time></trkpt><trkpt lat="51.7954613641" lon="-2.4255868234"><ele>12.63</ele><time>2015-06-24T09:06:33Z</time></trkpt><trkpt lat="51.7953471188" lon="-2.4256858137"><ele>11.67</ele><time>2015-06-24T09:06:49Z</time></trkpt><trkpt lat="51.7951394990" lon="-2.4257604126"><ele>11.67</ele><time>2015-06-24T09:07:07Z</time></trkpt><trkpt lat="51.7951110844" lon="-2.4257692136"><ele>12.63</ele><time>2015-06-24T09:07:09Z</time></trkpt><trkpt lat="51.7950829212" lon="-2.4257914256"><ele>10.71</ele><time>2015-06-24T09:07:12Z</time></trkpt><trkpt lat="51.7950420175" lon="-2.4258088600"><ele>12.63</ele><time>2015-06-24T09:07:15Z</time></trkpt><trkpt lat="51.7949658260" lon="-2.4258610792"><ele>9.27</ele><time>2015-06-24T09:07:23Z</time></trkpt><trkpt lat="51.7949586175" lon="-2.4258827884"><ele>13.12</ele><time>2015-06-24T09:07:25Z</time></trkpt><trkpt lat="51.7949290294" lon="-2.4258827884"><ele>9.75</ele><time>2015-06-24T09:07:29Z</time></trkpt><trkpt lat="51.7949011177" lon="-2.4258902483"><ele>14.08</ele><time>2015-06-24T09:07:32Z</time></trkpt><trkpt lat="51.7948850244" lon="-2.4259013962"><ele>10.23</ele><time>2015-06-24T09:07:34Z</time></trkpt><trkpt lat="51.7948746309" lon="-2.4259092752"><ele>11.67</ele><time>2015-06-24T09:07:35Z</time></trkpt><trkpt lat="51.7948333081" lon="-2.4259385280"><ele>11.19</ele><time>2015-06-24T09:07:40Z</time></trkpt><trkpt lat="51.7947848607" lon="-2.4259674456"><ele>12.63</ele><time>2015-06-24T09:07:44Z</time></trkpt><trkpt lat="51.7947632354" lon="-2.4259796832"><ele>11.19</ele><time>2015-06-24T09:07:46Z</time></trkpt><trkpt lat="51.7947012093" lon="-2.4260484986"><ele>11.19</ele><time>2015-06-24T09:07:53Z</time></trkpt><trkpt lat="51.7945386842" lon="-2.4261167273"><ele>13.12</ele><time>2015-06-24T09:08:10Z</time></trkpt><trkpt lat="51.7945184000" lon="-2.4261262827"><ele>12.15</ele><time>2015-06-24T09:08:12Z</time></trkpt><trkpt lat="51.7944840342" lon="-2.4261452258"><ele>12.63</ele><time>2015-06-24T09:08:23Z</time></trkpt><trkpt lat="51.7944470700" lon="-2.4261449743"><ele>12.63</ele><time>2015-06-24T09:08:34Z</time></trkpt><trkpt lat="51.7944120336" lon="-2.4261515122"><ele>13.12</ele><time>2015-06-24T09:08:37Z</time></trkpt><trkpt lat="51.7943342496" lon="-2.4261700362"><ele>12.63</ele><time>2015-06-24T09:08:44Z</time></trkpt><trkpt lat="51.7943077628" lon="-2.4261795916"><ele>12.63</ele><time>2015-06-24T09:08:47Z</time></trkpt><trkpt lat="51.7942852993" lon="-2.4261889793"><ele>12.63</ele><time>2015-06-24T09:08:49Z</time></trkpt><trkpt lat="51.7941939365" lon="-2.4262384325"><ele>13.12</ele><time>2015-06-24T09:09:02Z</time></trkpt><trkpt lat="51.7940615863" lon="-2.4262685236"><ele>13.12</ele><time>2015-06-24T09:09:16Z</time></trkpt><trkpt lat="51.7939092033" lon="-2.4262751453"><ele>13.60</ele><time>2015-06-24T09:09:28Z</time></trkpt><trkpt lat="51.7937577423" lon="-2.4262989499"><ele>13.12</ele><time>2015-06-24T09:09:42Z</time></trkpt><trkpt lat="51.7936688103" lon="-2.4262964353"><ele>13.12</ele><time>2015-06-24T09:09:52Z</time></trkpt><trkpt lat="51.7935595103" lon="-2.4263255205"><ele>12.63</ele><time>2015-06-24T09:10:05Z</time></trkpt><trkpt lat="51.7934119049" lon="-2.4263758119"><ele>12.15</ele><time>2015-06-24T09:10:19Z</time></trkpt><trkpt lat="51.7932668142" lon="-2.4264256004"><ele>12.15</ele><time>2015-06-24T09:10:32Z</time></trkpt><trkpt lat="51.7931293510" lon="-2.4264913984"><ele>12.63</ele><time>2015-06-24T09:10:45Z</time></trkpt><trkpt lat="51.7930261698" lon="-2.4265030492"><ele>12.15</ele><time>2015-06-24T09:10:58Z</time></trkpt><trkpt lat="51.7930284329" lon="-2.4264825135"><ele>12.63</ele><time>2015-06-24T09:11:25Z</time></trkpt><trkpt lat="51.7930109147" lon="-2.4263382610"><ele>12.15</ele><time>2015-06-24T09:11:36Z</time></trkpt><trkpt lat="51.7930017784" lon="-2.4262885563"><ele>12.63</ele><time>2015-06-24T09:11:39Z</time></trkpt><trkpt lat="51.7929662392" lon="-2.4261156376"><ele>11.67</ele><time>2015-06-24T09:11:49Z</time></trkpt><trkpt lat="51.7929358967" lon="-2.4258887395"><ele>11.19</ele><time>2015-06-24T09:12:03Z</time></trkpt><trkpt lat="51.7928926460" lon="-2.4256610032"><ele>10.71</ele><time>2015-06-24T09:12:16Z</time></trkpt><trkpt lat="51.7928747088" lon="-2.4255273119"><ele>10.71</ele><time>2015-06-24T09:12:24Z</time></trkpt><trkpt lat="51.7928281054" lon="-2.4252830632"><ele>10.71</ele><time>2015-06-24T09:12:38Z</time></trkpt><trkpt lat="51.7928106710" lon="-2.4250683188"><ele>9.27</ele><time>2015-06-24T09:12:50Z</time></trkpt><trkpt lat="51.7928030435" lon="-2.4249096494"><ele>9.75</ele><time>2015-06-24T09:13:02Z</time></trkpt><trkpt lat="51.7927958351" lon="-2.4246870261"><ele>9.75</ele><time>2015-06-24T09:13:17Z</time></trkpt><trkpt lat="51.7927877884" lon="-2.4246286042"><ele>9.27</ele><time>2015-06-24T09:13:22Z</time></trkpt><trkpt lat="51.7927801609" lon="-2.4245114252"><ele>9.27</ele><time>2015-06-24T09:13:29Z</time></trkpt><trkpt lat="51.7927821726" lon="-2.4244690966"><ele>9.27</ele><time>2015-06-24T09:13:32Z</time></trkpt><trkpt lat="51.7927234154" lon="-2.4242331460"><ele>8.79</ele><time>2015-06-24T09:13:49Z</time></trkpt><trkpt lat="51.7926994432" lon="-2.4242384266"><ele>8.79</ele><time>2015-06-24T09:13:59Z</time></trkpt><trkpt lat="51.7927133571" lon="-2.4241593014"><ele>8.79</ele><time>2015-06-24T09:14:07Z</time></trkpt><trkpt lat="51.7926396802" lon="-2.4239825271"><ele>8.31</ele><time>2015-06-24T09:14:18Z</time></trkpt><trkpt lat="51.7926192284" lon="-2.4239017256"><ele>8.79</ele><time>2015-06-24T09:14:23Z</time></trkpt><trkpt lat="51.7925250158" lon="-2.4236725643"><ele>8.79</ele><time>2015-06-24T09:14:37Z</time></trkpt><trkpt lat="51.7924462259" lon="-2.4235441536"><ele>8.31</ele><time>2015-06-24T09:14:48Z</time></trkpt><trkpt lat="51.7924147937" lon="-2.4234810378"><ele>8.31</ele><time>2015-06-24T09:14:53Z</time></trkpt><trkpt lat="51.7923240177" lon="-2.4232940376"><ele>9.27</ele><time>2015-06-24T09:15:08Z</time></trkpt><trkpt lat="51.7922525201" lon="-2.4231456779"><ele>9.75</ele><time>2015-06-24T09:15:20Z</time></trkpt><trkpt lat="51.7921840400" lon="-2.4229905289"><ele>9.75</ele><time>2015-06-24T09:15:33Z</time></trkpt><trkpt lat="51.7921122909" lon="-2.4228222203"><ele>9.27</ele><time>2015-06-24T09:15:46Z</time></trkpt><trkpt lat="51.7920202576" lon="-2.4226185400"><ele>9.27</ele><time>2015-06-24T09:16:02Z</time></trkpt><trkpt lat="51.7919935193" lon="-2.4225560948"><ele>9.27</ele><time>2015-06-24T09:16:07Z</time></trkpt><trkpt lat="51.7919234466" lon="-2.4224002752"><ele>9.27</ele><time>2015-06-24T09:16:20Z</time></trkpt><trkpt lat="51.7919115443" lon="-2.4223694298"><ele>9.27</ele><time>2015-06-24T09:16:23Z</time></trkpt><trkpt lat="51.7918317486" lon="-2.4221831840"><ele>9.27</ele><time>2015-06-24T09:16:38Z</time></trkpt><trkpt lat="51.7917860672" lon="-2.4220748898"><ele>9.75</ele><time>2015-06-24T09:16:46Z</time></trkpt><trkpt lat="51.7917564791" lon="-2.4220194854"><ele>9.75</ele><time>2015-06-24T09:16:51Z</time></trkpt><trkpt lat="51.7916880827" lon="-2.4218302220"><ele>9.27</ele><time>2015-06-24T09:17:04Z</time></trkpt><trkpt lat="51.7916072812" lon="-2.4216319900"><ele>9.75</ele><time>2015-06-24T09:17:17Z</time></trkpt><trkpt lat="51.7915775254" lon="-2.4215702154"><ele>9.75</ele><time>2015-06-24T09:17:22Z</time></trkpt><trkpt lat="51.7915024236" lon="-2.4213879928"><ele>9.75</ele><time>2015-06-24T09:17:36Z</time></trkpt><trkpt lat="51.7914177664" lon="-2.4212247133"><ele>10.23</ele><time>2015-06-24T09:17:49Z</time></trkpt><trkpt lat="51.7913426645" lon="-2.4210516270"><ele>10.23</ele><time>2015-06-24T09:18:02Z</time></trkpt><trkpt lat="51.7913217098" lon="-2.4209945463"><ele>9.75</ele><time>2015-06-24T09:18:06Z</time></trkpt><trkpt lat="51.7912633717" lon="-2.4208658002"><ele>10.23</ele><time>2015-06-24T09:18:15Z</time></trkpt><trkpt lat="51.7912330292" lon="-2.4207890220"><ele>9.27</ele><time>2015-06-24T09:18:20Z</time></trkpt><trkpt lat="51.7911548261" lon="-2.4206364714"><ele>9.75</ele><time>2015-06-24T09:18:34Z</time></trkpt><trkpt lat="51.7910632957" lon="-2.4203967489"><ele>9.27</ele><time>2015-06-24T09:18:52Z</time></trkpt><trkpt lat="51.7910446879" lon="-2.4203542527"><ele>9.27</ele><time>2015-06-24T09:18:55Z</time></trkpt><trkpt lat="51.7909136787" lon="-2.4201385025"><ele>8.31</ele><time>2015-06-24T09:19:12Z</time></trkpt><trkpt lat="51.7908228189" lon="-2.4199341517"><ele>9.27</ele><time>2015-06-24T09:19:26Z</time></trkpt><trkpt lat="51.7907326296" lon="-2.4197337404"><ele>9.27</ele><time>2015-06-24T09:19:40Z</time></trkpt><trkpt lat="51.7906396743" lon="-2.4195220973"><ele>9.75</ele><time>2015-06-24T09:19:56Z</time></trkpt><trkpt lat="51.7905725352" lon="-2.4193775933"><ele>9.27</ele><time>2015-06-24T09:20:08Z</time></trkpt><trkpt lat="51.7904927395" lon="-2.4192226119"><ele>9.27</ele><time>2015-06-24T09:20:22Z</time></trkpt><trkpt lat="51.7903981078" lon="-2.4190865736"><ele>9.27</ele><time>2015-06-24T09:20:34Z</time></trkpt><trkpt lat="51.7903027218" lon="-2.4189657904"><ele>8.31</ele><time>2015-06-24T09:20:49Z</time></trkpt><trkpt lat="51.7902617343" lon="-2.4189535528"><ele>8.31</ele><time>2015-06-24T09:21:02Z</time></trkpt><trkpt lat="51.7900935095" lon="-2.4187559914"><ele>8.79</ele><time>2015-06-24T09:21:19Z</time></trkpt><trkpt lat="51.7899549566" lon="-2.4186454341"><ele>8.79</ele><time>2015-06-24T09:21:32Z</time></trkpt><trkpt lat="51.7898902483" lon="-2.4185656384"><ele>8.31</ele><time>2015-06-24T09:21:46Z</time></trkpt><trkpt lat="51.7898836266" lon="-2.4185599387"><ele>8.79</ele><time>2015-06-24T09:21:47Z</time></trkpt><trkpt lat="51.7897909228" lon="-2.4184717610"><ele>8.79</ele><time>2015-06-24T09:21:56Z</time></trkpt><trkpt lat="51.7896770965" lon="-2.4183324538"><ele>9.27</ele><time>2015-06-24T09:22:09Z</time></trkpt><trkpt lat="51.7895303294" lon="-2.4182171188"><ele>8.31</ele><time>2015-06-24T09:22:23Z</time></trkpt><trkpt lat="51.7893651221" lon="-2.4180294480"><ele>9.27</ele><time>2015-06-24T09:22:43Z</time></trkpt><trkpt lat="51.7891846597" lon="-2.4178649951"><ele>8.31</ele><time>2015-06-24T09:23:03Z</time></trkpt><trkpt lat="51.7890727613" lon="-2.4177355785"><ele>8.31</ele><time>2015-06-24T09:23:15Z</time></trkpt><trkpt lat="51.7889451887" lon="-2.4177696928"><ele>9.75</ele><time>2015-06-24T09:23:27Z</time></trkpt><trkpt lat="51.7888534907" lon="-2.4178095907"><ele>10.23</ele><time>2015-06-24T09:23:37Z</time></trkpt><trkpt lat="51.7887465376" lon="-2.4177991133"><ele>10.23</ele><time>2015-06-24T09:23:50Z</time></trkpt><trkpt lat="51.7887369823" lon="-2.4177979399"><ele>10.71</ele><time>2015-06-24T09:23:51Z</time></trkpt><trkpt lat="51.7887271754" lon="-2.4177983589"><ele>9.27</ele><time>2015-06-24T09:23:52Z</time></trkpt><trkpt lat="51.7885488924" lon="-2.4177617300"><ele>9.75</ele><time>2015-06-24T09:24:09Z</time></trkpt><trkpt lat="51.7884038016" lon="-2.4176935852"><ele>9.27</ele><time>2015-06-24T09:24:25Z</time></trkpt><trkpt lat="51.7883941624" lon="-2.4176883046"><ele>8.79</ele><time>2015-06-24T09:24:26Z</time></trkpt><trkpt lat="51.7882717028" lon="-2.4176289607"><ele>10.23</ele><time>2015-06-24T09:24:39Z</time></trkpt><trkpt lat="51.7882378399" lon="-2.4176143762"><ele>10.23</ele><time>2015-06-24T09:24:43Z</time></trkpt><trkpt lat="51.7881012987" lon="-2.4175494164"><ele>9.75</ele><time>2015-06-24T09:24:57Z</time></trkpt><trkpt lat="51.7880212516" lon="-2.4175152183"><ele>9.27</ele><time>2015-06-24T09:25:10Z</time></trkpt><trkpt lat="51.7879417911" lon="-2.4174812716"><ele>9.75</ele><time>2015-06-24T09:25:19Z</time></trkpt><trkpt lat="51.7877749912" lon="-2.4173402879"><ele>9.27</ele><time>2015-06-24T09:25:37Z</time></trkpt><trkpt lat="51.7876640148" lon="-2.4172564689"><ele>9.75</ele><time>2015-06-24T09:25:51Z</time></trkpt><trkpt lat="51.7875583190" lon="-2.4171650223"><ele>9.27</ele><time>2015-06-24T09:26:03Z</time></trkpt><trkpt lat="51.7874488514" lon="-2.4170827959"><ele>9.75</ele><time>2015-06-24T09:26:16Z</time></trkpt><trkpt lat="51.7873879150" lon="-2.4170103762"><ele>9.27</ele><time>2015-06-24T09:26:25Z</time></trkpt><trkpt lat="51.7873639427" lon="-2.4170097057"><ele>9.75</ele><time>2015-06-24T09:26:28Z</time></trkpt><trkpt lat="51.7872752622" lon="-2.4169854820"><ele>9.75</ele><time>2015-06-24T09:26:42Z</time></trkpt><trkpt lat="51.7872693110" lon="-2.4169867393"><ele>8.79</ele><time>2015-06-24T09:26:43Z</time></trkpt><trkpt lat="51.7872336879" lon="-2.4170247093"><ele>9.27</ele><time>2015-06-24T09:27:00Z</time></trkpt><trkpt lat="51.7872340232" lon="-2.4170200154"><ele>9.27</ele><time>2015-06-24T09:27:18Z</time></trkpt><trkpt lat="51.7872166727" lon="-2.4170345161"><ele>8.79</ele><time>2015-06-24T09:27:41Z</time></trkpt><trkpt lat="51.7871875037" lon="-2.4170556385"><ele>10.23</ele><time>2015-06-24T09:27:44Z</time></trkpt><trkpt lat="51.7870777007" lon="-2.4171271361"><ele>9.27</ele><time>2015-06-24T09:27:58Z</time></trkpt><trkpt lat="51.7870641220" lon="-2.4171646871"><ele>9.75</ele><time>2015-06-24T09:28:01Z</time></trkpt><trkpt lat="51.7870500404" lon="-2.4171911739"><ele>10.23</ele><time>2015-06-24T09:28:03Z</time></trkpt><trkpt lat="51.7869993299" lon="-2.4172345921"><ele>9.75</ele><time>2015-06-24T09:28:08Z</time></trkpt><trkpt lat="51.7869806383" lon="-2.4172608275"><ele>11.19</ele><time>2015-06-24T09:28:10Z</time></trkpt><trkpt lat="51.7869444285" lon="-2.4173090234"><ele>11.67</ele><time>2015-06-24T09:28:15Z</time></trkpt><trkpt lat="51.7869321909" lon="-2.4173238594"><ele>10.23</ele><time>2015-06-24T09:28:17Z</time></trkpt><trkpt lat="51.7869114038" lon="-2.4173536990"><ele>9.75</ele><time>2015-06-24T09:28:21Z</time></trkpt><trkpt lat="51.7868642975" lon="-2.4173933454"><ele>10.71</ele><time>2015-06-24T09:28:35Z</time></trkpt><trkpt lat="51.7868531495" lon="-2.4173982907"><ele>11.19</ele><time>2015-06-24T09:28:52Z</time></trkpt><trkpt lat="51.7868204601" lon="-2.4174430501"><ele>10.23</ele><time>2015-06-24T09:28:56Z</time></trkpt><trkpt lat="51.7868077196" lon="-2.4174604844"><ele>11.67</ele><time>2015-06-24T09:28:59Z</time></trkpt><trkpt lat="51.7868132517" lon="-2.4174714647"><ele>12.15</ele><time>2015-06-24T09:29:17Z</time></trkpt><trkpt lat="51.7867979966" lon="-2.4174831994"><ele>12.15</ele><time>2015-06-24T09:29:19Z</time></trkpt><trkpt lat="51.7867597751" lon="-2.4175171461"><ele>11.19</ele><time>2015-06-24T09:29:23Z</time></trkpt><trkpt lat="51.7866517324" lon="-2.4176448863"><ele>12.15</ele><time>2015-06-24T09:29:36Z</time></trkpt><trkpt lat="51.7866011895" lon="-2.4176899809"><ele>12.63</ele><time>2015-06-24T09:29:47Z</time></trkpt><trkpt lat="51.7865701765" lon="-2.4177186470"><ele>13.12</ele><time>2015-06-24T09:29:51Z</time></trkpt><trkpt lat="51.7865446117" lon="-2.4177544378"><ele>13.60</ele><time>2015-06-24T09:29:55Z</time></trkpt><trkpt lat="51.7865053006" lon="-2.4178088363"><ele>14.08</ele><time>2015-06-24T09:30:00Z</time></trkpt><trkpt lat="51.7864492256" lon="-2.4178623967"><ele>15.04</ele><time>2015-06-24T09:30:09Z</time></trkpt><trkpt lat="51.7864707671" lon="-2.4180588685"><ele>14.56</ele><time>2015-06-24T09:30:22Z</time></trkpt><trkpt lat="51.7865198012" lon="-2.4182243273"><ele>14.08</ele><time>2015-06-24T09:30:35Z</time></trkpt><trkpt lat="51.7865198851" lon="-2.4184052926"><ele>15.52</ele><time>2015-06-24T09:30:50Z</time></trkpt><trkpt lat="51.7865001038" lon="-2.4184706714"><ele>15.52</ele><time>2015-06-24T09:31:02Z</time></trkpt><trkpt lat="51.7865030374" lon="-2.4184906203"><ele>15.04</ele><time>2015-06-24T09:31:06Z</time></trkpt><trkpt lat="51.7864990141" lon="-2.4185810611"><ele>16.48</ele><time>2015-06-24T09:31:12Z</time></trkpt><trkpt lat="51.7864987627" lon="-2.4185945559"><ele>12.63</ele><time>2015-06-24T09:31:13Z</time></trkpt><trkpt lat="51.7864970863" lon="-2.4186054524"><ele>19.36</ele><time>2015-06-24T09:31:14Z</time></trkpt><trkpt lat="51.7864947394" lon="-2.4186181091"><ele>16.00</ele><time>2015-06-24T09:31:15Z</time></trkpt><trkpt lat="51.7864776403" lon="-2.4187330250"><ele>16.48</ele><time>2015-06-24T09:31:23Z</time></trkpt><trkpt lat="51.7864733655" lon="-2.4188115634"><ele>16.96</ele><time>2015-06-24T09:31:28Z</time></trkpt><trkpt lat="51.7864705157" lon="-2.4190339353"><ele>16.48</ele><time>2015-06-24T09:31:42Z</time></trkpt><trkpt lat="51.7864737846" lon="-2.4192573968"><ele>16.96</ele><time>2015-06-24T09:31:57Z</time></trkpt><trkpt lat="51.7864694260" lon="-2.4194480851"><ele>16.96</ele><time>2015-06-24T09:32:10Z</time></trkpt><trkpt lat="51.7864630558" lon="-2.4196381029"><ele>16.00</ele><time>2015-06-24T09:32:23Z</time></trkpt><trkpt lat="51.7864465434" lon="-2.4198670126"><ele>16.00</ele><time>2015-06-24T09:32:37Z</time></trkpt><trkpt lat="51.7864417657" lon="-2.4199332297"><ele>16.00</ele><time>2015-06-24T09:32:51Z</time></trkpt><trkpt lat="51.7864420172" lon="-2.4199388456"><ele>16.00</ele><time>2015-06-24T09:33:13Z</time></trkpt><trkpt lat="51.7864539195" lon="-2.4199195672"><ele>15.52</ele><time>2015-06-24T09:33:28Z</time></trkpt><trkpt lat="51.7864609603" lon="-2.4199734628"><ele>15.04</ele><time>2015-06-24T09:33:40Z</time></trkpt><trkpt lat="51.7864749581" lon="-2.4200722855"><ele>15.52</ele><time>2015-06-24T09:33:50Z</time></trkpt><trkpt lat="51.7864752095" lon="-2.4201780651"><ele>14.56</ele><time>2015-06-24T09:33:57Z</time></trkpt><trkpt lat="51.7864838429" lon="-2.4202518258"><ele>13.60</ele><time>2015-06-24T09:34:02Z</time></trkpt><trkpt lat="51.7864897102" lon="-2.4203924742"><ele>12.63</ele><time>2015-06-24T09:34:11Z</time></trkpt><trkpt lat="51.7864871956" lon="-2.4204811547"><ele>12.63</ele><time>2015-06-24T09:34:17Z</time></trkpt><trkpt lat="51.7864932306" lon="-2.4205722660"><ele>13.12</ele><time>2015-06-24T09:34:23Z</time></trkpt><trkpt lat="51.7864738684" lon="-2.4207052868"><ele>13.12</ele><time>2015-06-24T09:34:35Z</time></trkpt><trkpt lat="51.7864429392" lon="-2.4208947178"><ele>12.15</ele><time>2015-06-24T09:34:50Z</time></trkpt><trkpt lat="51.7864386644" lon="-2.4209281616"><ele>13.60</ele><time>2015-06-24T09:35:09Z</time></trkpt><trkpt lat="51.7864370719" lon="-2.4209352862"><ele>14.56</ele><time>2015-06-24T09:35:20Z</time></trkpt><trkpt lat="51.7864389159" lon="-2.4209779501"><ele>12.15</ele><time>2015-06-24T09:35:38Z</time></trkpt><trkpt lat="51.7864405084" lon="-2.4210479390"><ele>13.12</ele><time>2015-06-24T09:35:43Z</time></trkpt><trkpt lat="51.7864321265" lon="-2.4211994000"><ele>13.12</ele><time>2015-06-24T09:35:56Z</time></trkpt><trkpt lat="51.7864324618" lon="-2.4212007411"><ele>12.15</ele><time>2015-06-24T09:35:59Z</time></trkpt><trkpt lat="51.7864285223" lon="-2.4212638568"><ele>12.63</ele><time>2015-06-24T09:36:03Z</time></trkpt><trkpt lat="51.7864257563" lon="-2.4213199317"><ele>12.15</ele><time>2015-06-24T09:36:07Z</time></trkpt><trkpt lat="51.7864301987" lon="-2.4214227777"><ele>12.15</ele><time>2015-06-24T09:36:14Z</time></trkpt><trkpt lat="51.7864445318" lon="-2.4215164036"><ele>12.15</ele><time>2015-06-24T09:36:28Z</time></trkpt><trkpt lat="51.7864550930" lon="-2.4215469137"><ele>12.63</ele><time>2015-06-24T09:36:39Z</time></trkpt><trkpt lat="51.7864485551" lon="-2.4216724746"><ele>13.60</ele><time>2015-06-24T09:36:51Z</time></trkpt><trkpt lat="51.7864450347" lon="-2.4217346683"><ele>12.15</ele><time>2015-06-24T09:37:07Z</time></trkpt><trkpt lat="51.7864499800" lon="-2.4217848759"><ele>13.12</ele><time>2015-06-24T09:37:20Z</time></trkpt><trkpt lat="51.7864483036" lon="-2.4218120333"><ele>12.15</ele><time>2015-06-24T09:37:40Z</time></trkpt><trkpt lat="51.7864681687" lon="-2.4219140410"><ele>13.12</ele><time>2015-06-24T09:37:50Z</time></trkpt><trkpt lat="51.7864607926" lon="-2.4219204951"><ele>14.08</ele><time>2015-06-24T09:38:04Z</time></trkpt><trkpt lat="51.7864584457" lon="-2.4219282065"><ele>9.27</ele><time>2015-06-24T09:38:16Z</time></trkpt><trkpt lat="51.7864589486" lon="-2.4219289608"><ele>12.63</ele><time>2015-06-24T09:38:17Z</time></trkpt><trkpt lat="51.7864726949" lon="-2.4219879694"><ele>11.67</ele><time>2015-06-24T09:38:21Z</time></trkpt><trkpt lat="51.7864778079" lon="-2.4220504146"><ele>12.15</ele><time>2015-06-24T09:38:25Z</time></trkpt><trkpt lat="51.7864931468" lon="-2.4221662525"><ele>12.15</ele><time>2015-06-24T09:38:32Z</time></trkpt><trkpt lat="51.7864974216" lon="-2.4222316314"><ele>12.15</ele><time>2015-06-24T09:38:46Z</time></trkpt><trkpt lat="51.7864973377" lon="-2.4222481437"><ele>11.19</ele><time>2015-06-24T09:39:18Z</time></trkpt><trkpt lat="51.7864977568" lon="-2.4222499039"><ele>11.67</ele><time>2015-06-24T09:39:20Z</time></trkpt><trkpt lat="51.7864998523" lon="-2.4222950824"><ele>11.67</ele><time>2015-06-24T09:39:36Z</time></trkpt><trkpt lat="51.7865030374" lon="-2.4223157857"><ele>11.67</ele><time>2015-06-24T09:39:47Z</time></trkpt><trkpt lat="51.7865046300" lon="-2.4223693460"><ele>12.15</ele><time>2015-06-24T09:39:50Z</time></trkpt><trkpt lat="51.7865022831" lon="-2.4224380776"><ele>10.71</ele><time>2015-06-24T09:39:54Z</time></trkpt><trkpt lat="51.7865042947" lon="-2.4224948231"><ele>11.67</ele><time>2015-06-24T09:39:57Z</time></trkpt><trkpt lat="51.7865062226" lon="-2.4226213899"><ele>12.63</ele><time>2015-06-24T09:40:08Z</time></trkpt><trkpt lat="51.7865007743" lon="-2.4226986710"><ele>11.19</ele><time>2015-06-24T09:40:13Z</time></trkpt><trkpt lat="51.7865103297" lon="-2.4228241481"><ele>15.52</ele><time>2015-06-24T09:40:19Z</time></trkpt><trkpt lat="51.7865113355" lon="-2.4228315242"><ele>11.67</ele><time>2015-06-24T09:40:20Z</time></trkpt><trkpt lat="51.7865166999" lon="-2.4228649680"><ele>11.67</ele><time>2015-06-24T09:40:22Z</time></trkpt><trkpt lat="51.7865243275" lon="-2.4229388963"><ele>13.12</ele><time>2015-06-24T09:40:25Z</time></trkpt><trkpt lat="51.7865203042" lon="-2.4231996574"><ele>12.63</ele><time>2015-06-24T09:40:36Z</time></trkpt><trkpt lat="51.7865209747" lon="-2.4232307542"><ele>10.71</ele><time>2015-06-24T09:40:38Z</time></trkpt><trkpt lat="51.7865239084" lon="-2.4232885055"><ele>11.19</ele><time>2015-06-24T09:40:41Z</time></trkpt><trkpt lat="51.7865315359" lon="-2.4234035052"><ele>14.08</ele><time>2015-06-24T09:40:46Z</time></trkpt><trkpt lat="51.7865367327" lon="-2.4234426487"><ele>11.19</ele><time>2015-06-24T09:40:49Z</time></trkpt><trkpt lat="51.7865515687" lon="-2.4235475902"><ele>13.12</ele><time>2015-06-24T09:40:54Z</time></trkpt><trkpt lat="51.7865532450" lon="-2.4237342551"><ele>12.63</ele><time>2015-06-24T09:41:03Z</time></trkpt><trkpt lat="51.7865569331" lon="-2.4238530267"><ele>13.12</ele><time>2015-06-24T09:41:08Z</time></trkpt><trkpt lat="51.7865625490" lon="-2.4241334014"><ele>10.71</ele><time>2015-06-24T09:41:22Z</time></trkpt><trkpt lat="51.7865628004" lon="-2.4241976067"><ele>12.63</ele><time>2015-06-24T09:41:25Z</time></trkpt><trkpt lat="51.7865750380" lon="-2.4242975190"><ele>13.12</ele><time>2015-06-24T09:41:30Z</time></trkpt><trkpt lat="51.7865783069" lon="-2.4244502373"><ele>13.12</ele><time>2015-06-24T09:41:37Z</time></trkpt><trkpt lat="51.7865802348" lon="-2.4245250039"><ele>13.12</ele><time>2015-06-24T09:41:41Z</time></trkpt><trkpt lat="51.7865773849" lon="-2.4245846830"><ele>11.19</ele><time>2015-06-24T09:41:44Z</time></trkpt><trkpt lat="51.7865900416" lon="-2.4248278420"><ele>11.67</ele><time>2015-06-24T09:41:56Z</time></trkpt><trkpt lat="51.7865807377" lon="-2.4249412492"><ele>10.71</ele><time>2015-06-24T09:42:02Z</time></trkpt><trkpt lat="51.7865875270" lon="-2.4250936322"><ele>13.60</ele><time>2015-06-24T09:42:09Z</time></trkpt><trkpt lat="51.7865796480" lon="-2.4251438398"><ele>10.23</ele><time>2015-06-24T09:42:12Z</time></trkpt><trkpt lat="51.7865861021" lon="-2.4252340291"><ele>12.63</ele><time>2015-06-24T09:42:16Z</time></trkpt><trkpt lat="51.7865761276" lon="-2.4253262300"><ele>10.71</ele><time>2015-06-24T09:42:20Z</time></trkpt><trkpt lat="51.7865849286" lon="-2.4254486058"><ele>12.63</ele><time>2015-06-24T09:42:26Z</time></trkpt><trkpt lat="51.7865884490" lon="-2.4255204387"><ele>11.19</ele><time>2015-06-24T09:42:30Z</time></trkpt><trkpt lat="51.7865990940" lon="-2.4257045053"><ele>10.71</ele><time>2015-06-24T09:42:39Z</time></trkpt><trkpt lat="51.7866116669" lon="-2.4258761667"><ele>10.71</ele><time>2015-06-24T09:42:48Z</time></trkpt><trkpt lat="51.7866197135" lon="-2.4259164836"><ele>12.15</ele><time>2015-06-24T09:42:50Z</time></trkpt><trkpt lat="51.7866165284" lon="-2.4259873945"><ele>10.71</ele><time>2015-06-24T09:42:54Z</time></trkpt><trkpt lat="51.7866168637" lon="-2.4261316471"><ele>11.19</ele><time>2015-06-24T09:43:06Z</time></trkpt><trkpt lat="51.7866194621" lon="-2.4261909071"><ele>9.75</ele><time>2015-06-24T09:43:22Z</time></trkpt><trkpt lat="51.7866291013" lon="-2.4263897259"><ele>10.23</ele><time>2015-06-24T09:43:34Z</time></trkpt><trkpt lat="51.7866342980" lon="-2.4264577031"><ele>11.67</ele><time>2015-06-24T09:43:37Z</time></trkpt><trkpt lat="51.7866331246" lon="-2.4265218247"><ele>10.23</ele><time>2015-06-24T09:43:41Z</time></trkpt><trkpt lat="51.7866591085" lon="-2.4267675821"><ele>12.15</ele><time>2015-06-24T09:43:53Z</time></trkpt><trkpt lat="51.7866652273" lon="-2.4269561749"><ele>11.67</ele><time>2015-06-24T09:44:05Z</time></trkpt><trkpt lat="51.7866828293" lon="-2.4269710947"><ele>11.19</ele><time>2015-06-24T09:44:21Z</time></trkpt><trkpt lat="51.7866685800" lon="-2.4270598590"><ele>12.15</ele><time>2015-06-24T09:44:31Z</time></trkpt><trkpt lat="51.7866796441" lon="-2.4271844979"><ele>10.71</ele><time>2015-06-24T09:44:39Z</time></trkpt><trkpt lat="51.7866863497" lon="-2.4272871763"><ele>11.67</ele><time>2015-06-24T09:44:45Z</time></trkpt><trkpt lat="51.7866919655" lon="-2.4273528066"><ele>11.67</ele><time>2015-06-24T09:44:49Z</time></trkpt><trkpt lat="51.7866900377" lon="-2.4273854122"><ele>9.75</ele><time>2015-06-24T09:44:51Z</time></trkpt><trkpt lat="51.7866774648" lon="-2.4276305828"><ele>10.71</ele><time>2015-06-24T09:45:04Z</time></trkpt><trkpt lat="51.7866830807" lon="-2.4277068581"><ele>9.75</ele><time>2015-06-24T09:45:09Z</time></trkpt><trkpt lat="51.7866794765" lon="-2.4277802836"><ele>9.27</ele><time>2015-06-24T09:45:14Z</time></trkpt><trkpt lat="51.7866762914" lon="-2.4278573971"><ele>10.23</ele><time>2015-06-24T09:45:19Z</time></trkpt><trkpt lat="51.7866684124" lon="-2.4279567227"><ele>9.75</ele><time>2015-06-24T09:45:25Z</time></trkpt><trkpt lat="51.7866585217" lon="-2.4280458223"><ele>9.75</ele><time>2015-06-24T09:45:30Z</time></trkpt><trkpt lat="51.7866513971" lon="-2.4280957785"><ele>10.23</ele><time>2015-06-24T09:45:33Z</time></trkpt><trkpt lat="51.7866327055" lon="-2.4281859677"><ele>12.15</ele><time>2015-06-24T09:45:38Z</time></trkpt><trkpt lat="51.7866264191" lon="-2.4282981176"><ele>10.23</ele><time>2015-06-24T09:45:49Z</time></trkpt><trkpt lat="51.7866304424" lon="-2.4283062480"><ele>13.60</ele><time>2015-06-24T09:46:01Z</time></trkpt><trkpt lat="51.7866207194" lon="-2.4283545278"><ele>9.75</ele><time>2015-06-24T09:46:05Z</time></trkpt><trkpt lat="51.7866113316" lon="-2.4284121953"><ele>11.19</ele><time>2015-06-24T09:46:22Z</time></trkpt><trkpt lat="51.7866161931" lon="-2.4284719583"><ele>10.71</ele><time>2015-06-24T09:46:44Z</time></trkpt><trkpt lat="51.7866133433" lon="-2.4285762291"><ele>11.67</ele><time>2015-06-24T09:46:57Z</time></trkpt><trkpt lat="51.7866158579" lon="-2.4286008719"><ele>8.79</ele><time>2015-06-24T09:46:59Z</time></trkpt><trkpt lat="51.7866235692" lon="-2.4287191406"><ele>11.67</ele><time>2015-06-24T09:47:12Z</time></trkpt><trkpt lat="51.7866234016" lon="-2.4287199788"><ele>8.79</ele><time>2015-06-24T09:47:13Z</time></trkpt><trkpt lat="51.7866094038" lon="-2.4287868664"><ele>10.23</ele><time>2015-06-24T09:47:23Z</time></trkpt><trkpt lat="51.7866187915" lon="-2.4288029596"><ele>9.75</ele><time>2015-06-24T09:47:43Z</time></trkpt><trkpt lat="51.7866278440" lon="-2.4288143590"><ele>9.75</ele><time>2015-06-24T09:48:01Z</time></trkpt><trkpt lat="51.7866228148" lon="-2.4288418517"><ele>9.27</ele><time>2015-06-24T09:48:09Z</time></trkpt><trkpt lat="51.7866249941" lon="-2.4289119244"><ele>9.75</ele><time>2015-06-24T09:48:13Z</time></trkpt><trkpt lat="51.7866406683" lon="-2.4289737828"><ele>9.27</ele><time>2015-06-24T09:48:17Z</time></trkpt><trkpt lat="51.7866785545" lon="-2.4291769601"><ele>9.75</ele><time>2015-06-24T09:48:30Z</time></trkpt><trkpt lat="51.7867076397" lon="-2.4293217994"><ele>10.71</ele><time>2015-06-24T09:48:40Z</time></trkpt><trkpt lat="51.7867181171" lon="-2.4294079654"><ele>10.23</ele><time>2015-06-24T09:48:45Z</time></trkpt><trkpt lat="51.7867234815" lon="-2.4294602685"><ele>10.23</ele><time>2015-06-24T09:48:48Z</time></trkpt><trkpt lat="51.7867359705" lon="-2.4295059498"><ele>9.75</ele><time>2015-06-24T09:48:51Z</time></trkpt><trkpt lat="51.7867468670" lon="-2.4295788724"><ele>9.75</ele><time>2015-06-24T09:48:56Z</time></trkpt><trkpt lat="51.7867608648" lon="-2.4296441674"><ele>9.75</ele><time>2015-06-24T09:49:00Z</time></trkpt><trkpt lat="51.7867668159" lon="-2.4296792876"><ele>9.75</ele><time>2015-06-24T09:49:02Z</time></trkpt><trkpt lat="51.7867829092" lon="-2.4297552276"><ele>9.75</ele><time>2015-06-24T09:49:07Z</time></trkpt><trkpt lat="51.7868010141" lon="-2.4298998155"><ele>9.27</ele><time>2015-06-24T09:49:16Z</time></trkpt><trkpt lat="51.7868083902" lon="-2.4299259670"><ele>9.75</ele><time>2015-06-24T09:49:18Z</time></trkpt><trkpt lat="51.7868213821" lon="-2.4300807808"><ele>11.19</ele><time>2015-06-24T09:49:29Z</time></trkpt><trkpt lat="51.7868339550" lon="-2.4300805293"><ele>11.19</ele><time>2015-06-24T09:49:34Z</time></trkpt><trkpt lat="51.7868457735" lon="-2.4301656894"><ele>9.75</ele><time>2015-06-24T09:49:40Z</time></trkpt><trkpt lat="51.7868629564" lon="-2.4302663561"><ele>10.23</ele><time>2015-06-24T09:49:46Z</time></trkpt><trkpt lat="51.7868729308" lon="-2.4303000513"><ele>10.71</ele><time>2015-06-24T09:49:48Z</time></trkpt><trkpt lat="51.7868817318" lon="-2.4303309806"><ele>9.27</ele><time>2015-06-24T09:49:50Z</time></trkpt><trkpt lat="51.7868867610" lon="-2.4303777516"><ele>9.75</ele><time>2015-06-24T09:49:53Z</time></trkpt><trkpt lat="51.7868928798" lon="-2.4304542784"><ele>9.27</ele><time>2015-06-24T09:49:57Z</time></trkpt><trkpt lat="51.7869127449" lon="-2.4306521751"><ele>9.75</ele><time>2015-06-24T09:50:08Z</time></trkpt><trkpt lat="51.7869325262" lon="-2.4307800829"><ele>9.27</ele><time>2015-06-24T09:50:17Z</time></trkpt><trkpt lat="51.7869586777" lon="-2.4310027063"><ele>9.27</ele><time>2015-06-24T09:50:30Z</time></trkpt><trkpt lat="51.7869886849" lon="-2.4311423488"><ele>10.23</ele><time>2015-06-24T09:50:42Z</time></trkpt><trkpt lat="51.7869898584" lon="-2.4311415944"><ele>9.27</ele><time>2015-06-24T09:50:46Z</time></trkpt><trkpt lat="51.7870022636" lon="-2.4311555922"><ele>10.23</ele><time>2015-06-24T09:50:52Z</time></trkpt><trkpt lat="51.7870020960" lon="-2.4311664049"><ele>9.27</ele><time>2015-06-24T09:51:18Z</time></trkpt><trkpt lat="51.7870282475" lon="-2.4311997648"><ele>9.27</ele><time>2015-06-24T09:51:32Z</time></trkpt><trkpt lat="51.7870275769" lon="-2.4312061351"><ele>8.79</ele><time>2015-06-24T09:51:54Z</time></trkpt><trkpt lat="51.7870305944" lon="-2.4312352203"><ele>10.23</ele><time>2015-06-24T09:52:14Z</time></trkpt><trkpt lat="51.7870574165" lon="-2.4313213862"><ele>8.79</ele><time>2015-06-24T09:52:29Z</time></trkpt><trkpt lat="51.7870704085" lon="-2.4314955622"><ele>8.79</ele><time>2015-06-24T09:52:40Z</time></trkpt><trkpt lat="51.7870929558" lon="-2.4316262361"><ele>7.83</ele><time>2015-06-24T09:52:48Z</time></trkpt><trkpt lat="51.7870947160" lon="-2.4316670559"><ele>7.35</ele><time>2015-06-24T09:52:51Z</time></trkpt><trkpt lat="51.7871187720" lon="-2.4317800440"><ele>7.83</ele><time>2015-06-24T09:52:58Z</time></trkpt><trkpt lat="51.7871326860" lon="-2.4318342749"><ele>7.83</ele><time>2015-06-24T09:53:01Z</time></trkpt><trkpt lat="51.7871440854" lon="-2.4318841472"><ele>7.83</ele><time>2015-06-24T09:53:04Z</time></trkpt><trkpt lat="51.7871507071" lon="-2.4319255538"><ele>8.31</ele><time>2015-06-24T09:53:10Z</time></trkpt><trkpt lat="51.7871623579" lon="-2.4319843110"><ele>7.83</ele><time>2015-06-24T09:53:15Z</time></trkpt><trkpt lat="51.7871738411" lon="-2.4321168289"><ele>8.31</ele><time>2015-06-24T09:53:22Z</time></trkpt><trkpt lat="51.7872061953" lon="-2.4323703814"><ele>8.79</ele><time>2015-06-24T09:53:37Z</time></trkpt><trkpt lat="51.7872464284" lon="-2.4325776659"><ele>8.31</ele><time>2015-06-24T09:53:50Z</time></trkpt><trkpt lat="51.7872564029" lon="-2.4326614849"><ele>8.31</ele><time>2015-06-24T09:53:55Z</time></trkpt><trkpt lat="51.7872864939" lon="-2.4327987805"><ele>8.31</ele><time>2015-06-24T09:54:05Z</time></trkpt><trkpt lat="51.7873051018" lon="-2.4328388460"><ele>8.79</ele><time>2015-06-24T09:54:08Z</time></trkpt><trkpt lat="51.7873253860" lon="-2.4330227450"><ele>8.79</ele><time>2015-06-24T09:54:19Z</time></trkpt><trkpt lat="51.7873541359" lon="-2.4331585318"><ele>8.79</ele><time>2015-06-24T09:54:30Z</time></trkpt><trkpt lat="51.7873663735" lon="-2.4332504813"><ele>8.79</ele><time>2015-06-24T09:54:36Z</time></trkpt><trkpt lat="51.7873750068" lon="-2.4332877807"><ele>9.27</ele><time>2015-06-24T09:54:38Z</time></trkpt><trkpt lat="51.7873868253" lon="-2.4333392456"><ele>8.79</ele><time>2015-06-24T09:54:41Z</time></trkpt><trkpt lat="51.7873982247" lon="-2.4333837535"><ele>7.83</ele><time>2015-06-24T09:54:44Z</time></trkpt><trkpt lat="51.7874265555" lon="-2.4335689098"><ele>9.27</ele><time>2015-06-24T09:54:55Z</time></trkpt><trkpt lat="51.7874491028" lon="-2.4337584246"><ele>9.27</ele><time>2015-06-24T09:55:07Z</time></trkpt><trkpt lat="51.7874510307" lon="-2.4337860849"><ele>7.83</ele><time>2015-06-24T09:55:09Z</time></trkpt><trkpt lat="51.7874897551" lon="-2.4339729175"><ele>8.79</ele><time>2015-06-24T09:55:21Z</time></trkpt><trkpt lat="51.7875130568" lon="-2.4340976402"><ele>9.27</ele><time>2015-06-24T09:55:29Z</time></trkpt><trkpt lat="51.7875213549" lon="-2.4341437407"><ele>8.31</ele><time>2015-06-24T09:55:32Z</time></trkpt><trkpt lat="51.7875371967" lon="-2.4342789408"><ele>7.83</ele><time>2015-06-24T09:55:41Z</time></trkpt><trkpt lat="51.7875546310" lon="-2.4343623407"><ele>9.27</ele><time>2015-06-24T09:55:47Z</time></trkpt><trkpt lat="51.7875537090" lon="-2.4344166555"><ele>8.31</ele><time>2015-06-24T09:55:50Z</time></trkpt><trkpt lat="51.7875660304" lon="-2.4344985466"><ele>8.31</ele><time>2015-06-24T09:55:55Z</time></trkpt><trkpt lat="51.7875815369" lon="-2.4346063379"><ele>8.79</ele><time>2015-06-24T09:56:03Z</time></trkpt><trkpt lat="51.7876097001" lon="-2.4347648397"><ele>8.31</ele><time>2015-06-24T09:56:13Z</time></trkpt><trkpt lat="51.7876362707" lon="-2.4348686077"><ele>8.31</ele><time>2015-06-24T09:56:21Z</time></trkpt><trkpt lat="51.7876531184" lon="-2.4349309690"><ele>7.83</ele><time>2015-06-24T09:56:25Z</time></trkpt><trkpt lat="51.7876855563" lon="-2.4351752177"><ele>9.27</ele><time>2015-06-24T09:56:39Z</time></trkpt><trkpt lat="51.7876942735" lon="-2.4351934902"><ele>8.31</ele><time>2015-06-24T09:56:41Z</time></trkpt><trkpt lat="51.7877043318" lon="-2.4352405127"><ele>8.79</ele><time>2015-06-24T09:56:44Z</time></trkpt><trkpt lat="51.7877169885" lon="-2.4352892954"><ele>9.27</ele><time>2015-06-24T09:56:47Z</time></trkpt><trkpt lat="51.7877184134" lon="-2.4353219848"><ele>8.79</ele><time>2015-06-24T09:56:49Z</time></trkpt><trkpt lat="51.7877366021" lon="-2.4353913032"><ele>8.79</ele><time>2015-06-24T09:56:54Z</time></trkpt><trkpt lat="51.7877427209" lon="-2.4354970828"><ele>8.31</ele><time>2015-06-24T09:57:00Z</time></trkpt><trkpt lat="51.7877594847" lon="-2.4355747830"><ele>8.79</ele><time>2015-06-24T09:57:05Z</time></trkpt><trkpt lat="51.7877678666" lon="-2.4356471188"><ele>9.27</ele><time>2015-06-24T09:57:09Z</time></trkpt><trkpt lat="51.7878239416" lon="-2.4358347896"><ele>8.79</ele><time>2015-06-24T09:57:22Z</time></trkpt><trkpt lat="51.7878495064" lon="-2.4359560758"><ele>9.75</ele><time>2015-06-24T09:57:30Z</time></trkpt><trkpt lat="51.7878567148" lon="-2.4359953869"><ele>9.27</ele><time>2015-06-24T09:57:34Z</time></trkpt><trkpt lat="51.7878899071" lon="-2.4361671321"><ele>10.23</ele><time>2015-06-24T09:57:44Z</time></trkpt><trkpt lat="51.7878842074" lon="-2.4362056050"><ele>10.71</ele><time>2015-06-24T09:57:46Z</time></trkpt><trkpt lat="51.7879198305" lon="-2.4363907613"><ele>10.71</ele><time>2015-06-24T09:57:59Z</time></trkpt><trkpt lat="51.7879168969" lon="-2.4364270549"><ele>8.79</ele><time>2015-06-24T09:58:01Z</time></trkpt><trkpt lat="51.7879251949" lon="-2.4365174957"><ele>8.79</ele><time>2015-06-24T09:58:06Z</time></trkpt><trkpt lat="51.7879357561" lon="-2.4365388695"><ele>8.79</ele><time>2015-06-24T09:58:08Z</time></trkpt><trkpt lat="51.7879834492" lon="-2.4365635123"><ele>10.71</ele><time>2015-06-24T09:58:19Z</time></trkpt><trkpt lat="51.7879846226" lon="-2.4365633447"><ele>10.23</ele><time>2015-06-24T09:58:29Z</time></trkpt><trkpt lat="51.7879897356" lon="-2.4365851376"><ele>8.79</ele><time>2015-06-24T09:58:31Z</time></trkpt><trkpt lat="51.7880049068" lon="-2.4367352575"><ele>9.75</ele><time>2015-06-24T09:58:41Z</time></trkpt><trkpt lat="51.7880211677" lon="-2.4368252791"><ele>9.75</ele><time>2015-06-24T09:58:47Z</time></trkpt><trkpt lat="51.7880241852" lon="-2.4368557055"><ele>8.79</ele><time>2015-06-24T09:58:49Z</time></trkpt><trkpt lat="51.7880537733" lon="-2.4370323122"><ele>8.79</ele><time>2015-06-24T09:59:00Z</time></trkpt><trkpt lat="51.7880577967" lon="-2.4370438792"><ele>8.31</ele><time>2015-06-24T09:59:01Z</time></trkpt><trkpt lat="51.7880988680" lon="-2.4371943343"><ele>8.79</ele><time>2015-06-24T09:59:12Z</time></trkpt><trkpt lat="51.7881165538" lon="-2.4372679275"><ele>8.31</ele><time>2015-06-24T09:59:17Z</time></trkpt><trkpt lat="51.7881530151" lon="-2.4374102522"><ele>8.31</ele><time>2015-06-24T09:59:27Z</time></trkpt><trkpt lat="51.7882083356" lon="-2.4375650659"><ele>9.27</ele><time>2015-06-24T09:59:39Z</time></trkpt><trkpt lat="51.7882160470" lon="-2.4376281817"><ele>7.83</ele><time>2015-06-24T09:59:43Z</time></trkpt><trkpt lat="51.7882554419" lon="-2.4377896171"><ele>8.79</ele><time>2015-06-24T09:59:56Z</time></trkpt><trkpt lat="51.7882869579" lon="-2.4379267450"><ele>8.79</ele><time>2015-06-24T10:00:06Z</time></trkpt><trkpt lat="51.7883173842" lon="-2.4380127434"><ele>8.79</ele><time>2015-06-24T10:00:19Z</time></trkpt><trkpt lat="51.7883235030" lon="-2.4380249809"><ele>9.27</ele><time>2015-06-24T10:00:42Z</time></trkpt><trkpt lat="51.7883355729" lon="-2.4380845763"><ele>9.27</ele><time>2015-06-24T10:00:56Z</time></trkpt><trkpt lat="51.7883643229" lon="-2.4382114783"><ele>9.27</ele><time>2015-06-24T10:01:07Z</time></trkpt><trkpt lat="51.7883813381" lon="-2.4382889271"><ele>8.31</ele><time>2015-06-24T10:01:13Z</time></trkpt><trkpt lat="51.7884100042" lon="-2.4383951258"><ele>8.79</ele><time>2015-06-24T10:01:26Z</time></trkpt><trkpt lat="51.7884141952" lon="-2.4384085368"><ele>9.27</ele><time>2015-06-24T10:01:27Z</time></trkpt><trkpt lat="51.7884256784" lon="-2.4384607561"><ele>9.27</ele><time>2015-06-24T10:01:30Z</time></trkpt><trkpt lat="51.7884358205" lon="-2.4385157414"><ele>9.27</ele><time>2015-06-24T10:01:33Z</time></trkpt><trkpt lat="51.7884462979" lon="-2.4385550525"><ele>9.27</ele><time>2015-06-24T10:01:36Z</time></trkpt><trkpt lat="51.7884566914" lon="-2.4385773484"><ele>8.79</ele><time>2015-06-24T10:01:38Z</time></trkpt><trkpt lat="51.7884676717" lon="-2.4386379495"><ele>9.75</ele><time>2015-06-24T10:01:42Z</time></trkpt><trkpt lat="51.7884723656" lon="-2.4386779312"><ele>9.75</ele><time>2015-06-24T10:01:44Z</time></trkpt><trkpt lat="51.7885025404" lon="-2.4387905002"><ele>9.75</ele><time>2015-06-24T10:01:53Z</time></trkpt><trkpt lat="51.7885224055" lon="-2.4388852157"><ele>9.27</ele><time>2015-06-24T10:01:59Z</time></trkpt><trkpt lat="51.7885326315" lon="-2.4389150552"><ele>9.75</ele><time>2015-06-24T10:02:01Z</time></trkpt><trkpt lat="51.7885449529" lon="-2.4389563780"><ele>8.31</ele><time>2015-06-24T10:02:04Z</time></trkpt><trkpt lat="51.7885805760" lon="-2.4390785862"><ele>9.27</ele><time>2015-06-24T10:02:13Z</time></trkpt><trkpt lat="51.7886293586" lon="-2.4392513372"><ele>9.75</ele><time>2015-06-24T10:02:25Z</time></trkpt><trkpt lat="51.7886509001" lon="-2.4392947555"><ele>9.27</ele><time>2015-06-24T10:02:29Z</time></trkpt><trkpt lat="51.7886736151" lon="-2.4393333122"><ele>8.79</ele><time>2015-06-24T10:02:33Z</time></trkpt><trkpt lat="51.7887265887" lon="-2.4394652434"><ele>9.27</ele><time>2015-06-24T10:02:42Z</time></trkpt><trkpt lat="51.7887343001" lon="-2.4395153672"><ele>9.75</ele><time>2015-06-24T10:02:45Z</time></trkpt><trkpt lat="51.7887449451" lon="-2.4395597074"><ele>9.27</ele><time>2015-06-24T10:02:48Z</time></trkpt><trkpt lat="51.7887513153" lon="-2.4395927321"><ele>9.75</ele><time>2015-06-24T10:02:50Z</time></trkpt><trkpt lat="51.7887975834" lon="-2.4397405051"><ele>9.75</ele><time>2015-06-24T10:03:00Z</time></trkpt><trkpt lat="51.7888098210" lon="-2.4397724401"><ele>9.27</ele><time>2015-06-24T10:03:03Z</time></trkpt><trkpt lat="51.7888446059" lon="-2.4398281798"><ele>9.27</ele><time>2015-06-24T10:03:09Z</time></trkpt><trkpt lat="51.7888809834" lon="-2.4399153516"><ele>9.75</ele><time>2015-06-24T10:03:20Z</time></trkpt><trkpt lat="51.7888961546" lon="-2.4399798084"><ele>9.75</ele><time>2015-06-24T10:03:28Z</time></trkpt><trkpt lat="51.7889320292" lon="-2.4400680698"><ele>9.27</ele><time>2015-06-24T10:03:40Z</time></trkpt><trkpt lat="51.7889347952" lon="-2.4400819000"><ele>9.75</ele><time>2015-06-24T10:03:41Z</time></trkpt><trkpt lat="51.7889535706" lon="-2.4401365500"><ele>9.27</ele><time>2015-06-24T10:03:45Z</time></trkpt><trkpt lat="51.7889793031" lon="-2.4402011745"><ele>9.27</ele><time>2015-06-24T10:03:50Z</time></trkpt><trkpt lat="51.7890202068" lon="-2.4402970634"><ele>9.27</ele><time>2015-06-24T10:04:02Z</time></trkpt><trkpt lat="51.7890339531" lon="-2.4403313454"><ele>9.27</ele><time>2015-06-24T10:04:05Z</time></trkpt><trkpt lat="51.7891033553" lon="-2.4404559005"><ele>9.75</ele><time>2015-06-24T10:04:15Z</time></trkpt><trkpt lat="51.7891361285" lon="-2.4405905977"><ele>9.27</ele><time>2015-06-24T10:04:25Z</time></trkpt><trkpt lat="51.7891824804" lon="-2.4407100398"><ele>10.23</ele><time>2015-06-24T10:04:37Z</time></trkpt><trkpt lat="51.7892098892" lon="-2.4407673720"><ele>9.75</ele><time>2015-06-24T10:04:45Z</time></trkpt><trkpt lat="51.7892217077" lon="-2.4408227764"><ele>9.75</ele><time>2015-06-24T10:04:49Z</time></trkpt><trkpt lat="51.7892524693" lon="-2.4408799410"><ele>9.75</ele><time>2015-06-24T10:04:54Z</time></trkpt><trkpt lat="51.7892792914" lon="-2.4409569707"><ele>9.75</ele><time>2015-06-24T10:05:09Z</time></trkpt><trkpt lat="51.7892771959" lon="-2.4409695435"><ele>10.23</ele><time>2015-06-24T10:05:28Z</time></trkpt><trkpt lat="51.7892741784" lon="-2.4409769196"><ele>9.75</ele><time>2015-06-24T10:05:59Z</time></trkpt><trkpt lat="51.7892737594" lon="-2.4409759976"><ele>9.75</ele><time>2015-06-24T10:06:18Z</time></trkpt><trkpt lat="51.7892719153" lon="-2.4409861397"><ele>9.27</ele><time>2015-06-24T10:06:25Z</time></trkpt><trkpt lat="51.7892911099" lon="-2.4410334136"><ele>10.23</ele><time>2015-06-24T10:06:28Z</time></trkpt><trkpt lat="51.7893227935" lon="-2.4410921708"><ele>9.75</ele><time>2015-06-24T10:06:33Z</time></trkpt><trkpt lat="51.7893450893" lon="-2.4411588907"><ele>9.27</ele><time>2015-06-24T10:06:38Z</time></trkpt><trkpt lat="51.7893732525" lon="-2.4412031472"><ele>9.27</ele><time>2015-06-24T10:06:42Z</time></trkpt><trkpt lat="51.7894123960" lon="-2.4412890617"><ele>9.75</ele><time>2015-06-24T10:06:49Z</time></trkpt><trkpt lat="51.7894360330" lon="-2.4413066637"><ele>9.75</ele><time>2015-06-24T10:06:52Z</time></trkpt><trkpt lat="51.7894764338" lon="-2.4414003734"><ele>9.75</ele><time>2015-06-24T10:07:02Z</time></trkpt><trkpt lat="51.7895102128" lon="-2.4415321369"><ele>9.75</ele><time>2015-06-24T10:07:13Z</time></trkpt><trkpt lat="51.7895473447" lon="-2.4416231643"><ele>10.23</ele><time>2015-06-24T10:07:23Z</time></trkpt><trkpt lat="51.7895778548" lon="-2.4417165387"><ele>10.23</ele><time>2015-06-24T10:07:32Z</time></trkpt><trkpt lat="51.7896072753" lon="-2.4417331349"><ele>9.75</ele><time>2015-06-24T10:07:35Z</time></trkpt><trkpt lat="51.7896382883" lon="-2.4418037105"><ele>9.27</ele><time>2015-06-24T10:07:45Z</time></trkpt><trkpt lat="51.7896825448" lon="-2.4419182912"><ele>10.23</ele><time>2015-06-24T10:07:57Z</time></trkpt><trkpt lat="51.7896850593" lon="-2.4419296905"><ele>10.23</ele><time>2015-06-24T10:07:58Z</time></trkpt><trkpt lat="51.7897255439" lon="-2.4420425110"><ele>10.23</ele><time>2015-06-24T10:08:06Z</time></trkpt><trkpt lat="51.7897806130" lon="-2.4421052076"><ele>9.75</ele><time>2015-06-24T10:08:17Z</time></trkpt><trkpt lat="51.7898012325" lon="-2.4421254918"><ele>9.75</ele><time>2015-06-24T10:08:20Z</time></trkpt><trkpt lat="51.7898730654" lon="-2.4422824848"><ele>8.79</ele><time>2015-06-24T10:08:33Z</time></trkpt><trkpt lat="51.7899253685" lon="-2.4423986580"><ele>9.27</ele><time>2015-06-24T10:08:45Z</time></trkpt><trkpt lat="51.7899939325" lon="-2.4425022583"><ele>9.75</ele><time>2015-06-24T10:08:56Z</time></trkpt><trkpt lat="51.7900499236" lon="-2.4425833952"><ele>10.23</ele><time>2015-06-24T10:09:05Z</time></trkpt><trkpt lat="51.7900712974" lon="-2.4426388834"><ele>10.23</ele><time>2015-06-24T10:09:10Z</time></trkpt><trkpt lat="51.7900986224" lon="-2.4426912703"><ele>10.23</ele><time>2015-06-24T10:09:15Z</time></trkpt><trkpt lat="51.7901102733" lon="-2.4427103810"><ele>9.75</ele><time>2015-06-24T10:09:17Z</time></trkpt><trkpt lat="51.7901785020" lon="-2.4428262189"><ele>10.23</ele><time>2015-06-24T10:09:29Z</time></trkpt><trkpt lat="51.7901971098" lon="-2.4428496882"><ele>9.75</ele><time>2015-06-24T10:09:32Z</time></trkpt><trkpt lat="51.7902093474" lon="-2.4428768456"><ele>10.71</ele><time>2015-06-24T10:09:34Z</time></trkpt><trkpt lat="51.7902624886" lon="-2.4429633468"><ele>10.23</ele><time>2015-06-24T10:09:46Z</time></trkpt><trkpt lat="51.7902774923" lon="-2.4429874867"><ele>10.71</ele><time>2015-06-24T10:10:01Z</time></trkpt><trkpt lat="51.7903142888" lon="-2.4430294801"><ele>11.67</ele><time>2015-06-24T10:10:08Z</time></trkpt><trkpt lat="51.7903613113" lon="-2.4430979602"><ele>10.71</ele><time>2015-06-24T10:10:16Z</time></trkpt><trkpt lat="51.7904511653" lon="-2.4432246108"><ele>10.23</ele><time>2015-06-24T10:10:28Z</time></trkpt><trkpt lat="51.7904559430" lon="-2.4432370160"><ele>9.75</ele><time>2015-06-24T10:10:29Z</time></trkpt><trkpt lat="51.7905481439" lon="-2.4434206635"><ele>10.23</ele><time>2015-06-24T10:10:43Z</time></trkpt><trkpt lat="51.7905934062" lon="-2.4434681889"><ele>10.23</ele><time>2015-06-24T10:10:49Z</time></trkpt><trkpt lat="51.7906309571" lon="-2.4435336515"><ele>9.75</ele><time>2015-06-24T10:10:54Z</time></trkpt><trkpt lat="51.7906903848" lon="-2.4436073285"><ele>10.23</ele><time>2015-06-24T10:11:01Z</time></trkpt><trkpt lat="51.7907908000" lon="-2.4437539279"><ele>10.23</ele><time>2015-06-24T10:11:15Z</time></trkpt><trkpt lat="51.7908653151" lon="-2.4438710231"><ele>10.71</ele><time>2015-06-24T10:11:25Z</time></trkpt><trkpt lat="51.7908762116" lon="-2.4438945763"><ele>10.71</ele><time>2015-06-24T10:11:27Z</time></trkpt><trkpt lat="51.7909192108" lon="-2.4439390004"><ele>10.71</ele><time>2015-06-24T10:11:33Z</time></trkpt><trkpt lat="51.7909456138" lon="-2.4439720251"><ele>10.71</ele><time>2015-06-24T10:11:36Z</time></trkpt><trkpt lat="51.7910420056" lon="-2.4440790620"><ele>10.71</ele><time>2015-06-24T10:11:48Z</time></trkpt><trkpt lat="51.7910552491" lon="-2.4440961611"><ele>10.71</ele><time>2015-06-24T10:11:50Z</time></trkpt><trkpt lat="51.7910959851" lon="-2.4441414233"><ele>10.71</ele><time>2015-06-24T10:11:55Z</time></trkpt><trkpt lat="51.7911254056" lon="-2.4441838358"><ele>10.71</ele><time>2015-06-24T10:11:59Z</time></trkpt><trkpt lat="51.7912167683" lon="-2.4442715943"><ele>11.19</ele><time>2015-06-24T10:12:12Z</time></trkpt><trkpt lat="51.7912354600" lon="-2.4442831613"><ele>10.71</ele><time>2015-06-24T10:12:15Z</time></trkpt><trkpt lat="51.7912542354" lon="-2.4443067983"><ele>11.67</ele><time>2015-06-24T10:12:17Z</time></trkpt><trkpt lat="51.7913663853" lon="-2.4444185290"><ele>11.19</ele><time>2015-06-24T10:12:31Z</time></trkpt><trkpt lat="51.7914200295" lon="-2.4444730952"><ele>11.19</ele><time>2015-06-24T10:12:38Z</time></trkpt><trkpt lat="51.7914428283" lon="-2.4445053656"><ele>11.19</ele><time>2015-06-24T10:12:41Z</time></trkpt><trkpt lat="51.7915224563" lon="-2.4445780367"><ele>10.23</ele><time>2015-06-24T10:12:51Z</time></trkpt><trkpt lat="51.7915433273" lon="-2.4445896875"><ele>9.75</ele><time>2015-06-24T10:13:04Z</time></trkpt><trkpt lat="51.7915740050" lon="-2.4446155038"><ele>9.27</ele><time>2015-06-24T10:13:08Z</time></trkpt><trkpt lat="51.7916126456" lon="-2.4446378835"><ele>11.19</ele><time>2015-06-24T10:13:11Z</time></trkpt><trkpt lat="51.7916475143" lon="-2.4446681421"><ele>10.23</ele><time>2015-06-24T10:13:15Z</time></trkpt><trkpt lat="51.7917380389" lon="-2.4447348621"><ele>15.04</ele><time>2015-06-24T10:13:25Z</time></trkpt><trkpt lat="51.7917485163" lon="-2.4447434954"><ele>11.19</ele><time>2015-06-24T10:13:26Z</time></trkpt><trkpt lat="51.7918568943" lon="-2.4448291585"><ele>10.71</ele><time>2015-06-24T10:13:37Z</time></trkpt><trkpt lat="51.7919213511" lon="-2.4448581599"><ele>10.71</ele><time>2015-06-24T10:13:44Z</time></trkpt><trkpt lat="51.7919490114" lon="-2.4448936991"><ele>10.23</ele><time>2015-06-24T10:13:57Z</time></trkpt><trkpt lat="51.7919750791" lon="-2.4449113011"><ele>10.71</ele><time>2015-06-24T10:14:00Z</time></trkpt><trkpt lat="51.7920184135" lon="-2.4449526239"><ele>11.19</ele><time>2015-06-24T10:14:05Z</time></trkpt><trkpt lat="51.7920484208" lon="-2.4449778534"><ele>10.71</ele><time>2015-06-24T10:14:08Z</time></trkpt><trkpt lat="51.7921518534" lon="-2.4450227804"><ele>11.19</ele><time>2015-06-24T10:14:18Z</time></trkpt><trkpt lat="51.7921847105" lon="-2.4450401310"><ele>10.71</ele><time>2015-06-24T10:14:21Z</time></trkpt><trkpt lat="51.7922941782" lon="-2.4450984690"><ele>10.71</ele><time>2015-06-24T10:14:32Z</time></trkpt><trkpt lat="51.7923526000" lon="-2.4451152328"><ele>10.71</ele><time>2015-06-24T10:14:38Z</time></trkpt><trkpt lat="51.7924075853" lon="-2.4451521970"><ele>10.71</ele><time>2015-06-24T10:14:44Z</time></trkpt><trkpt lat="51.7924869619" lon="-2.4452212639"><ele>10.71</ele><time>2015-06-24T10:14:53Z</time></trkpt><trkpt lat="51.7925943341" lon="-2.4452994671"><ele>10.71</ele><time>2015-06-24T10:15:05Z</time></trkpt><trkpt lat="51.7926207371" lon="-2.4453048315"><ele>11.19</ele><time>2015-06-24T10:15:08Z</time></trkpt><trkpt lat="51.7926712800" lon="-2.4453157280"><ele>10.71</ele><time>2015-06-24T10:15:13Z</time></trkpt><trkpt lat="51.7927269358" lon="-2.4453348387"><ele>11.19</ele><time>2015-06-24T10:15:19Z</time></trkpt><trkpt lat="51.7927768081" lon="-2.4453521892"><ele>10.71</ele><time>2015-06-24T10:15:24Z</time></trkpt><trkpt lat="51.7928828392" lon="-2.4453998823"><ele>11.67</ele><time>2015-06-24T10:15:34Z</time></trkpt><trkpt lat="51.7929439433" lon="-2.4454014748"><ele>10.23</ele><time>2015-06-24T10:15:39Z</time></trkpt><trkpt lat="51.7930457834" lon="-2.4454766605"><ele>10.71</ele><time>2015-06-24T10:15:50Z</time></trkpt><trkpt lat="51.7931130063" lon="-2.4454962742"><ele>12.15</ele><time>2015-06-24T10:15:56Z</time></trkpt><trkpt lat="51.7931633815" lon="-2.4455311429"><ele>11.19</ele><time>2015-06-24T10:16:01Z</time></trkpt><trkpt lat="51.7931828275" lon="-2.4455337413"><ele>11.19</ele><time>2015-06-24T10:16:03Z</time></trkpt><trkpt lat="51.7932121642" lon="-2.4455399439"><ele>11.19</ele><time>2015-06-24T10:16:06Z</time></trkpt><trkpt lat="51.7932692450" lon="-2.4455843680"><ele>10.71</ele><time>2015-06-24T10:16:12Z</time></trkpt><trkpt lat="51.7933991645" lon="-2.4456443824"><ele>10.71</ele><time>2015-06-24T10:16:25Z</time></trkpt><trkpt lat="51.7934366316" lon="-2.4456510879"><ele>11.19</ele><time>2015-06-24T10:16:28Z</time></trkpt><trkpt lat="51.7935459316" lon="-2.4456908181"><ele>11.19</ele><time>2015-06-24T10:16:39Z</time></trkpt><trkpt lat="51.7936669663" lon="-2.4457653333"><ele>10.71</ele><time>2015-06-24T10:16:50Z</time></trkpt><trkpt lat="51.7937925272" lon="-2.4457852822"><ele>11.67</ele><time>2015-06-24T10:17:01Z</time></trkpt><trkpt lat="51.7938584089" lon="-2.4457888026"><ele>11.19</ele><time>2015-06-24T10:17:07Z</time></trkpt><trkpt lat="51.7938818783" lon="-2.4458038900"><ele>11.19</ele><time>2015-06-24T10:17:10Z</time></trkpt><trkpt lat="51.7939138133" lon="-2.4458099250"><ele>11.19</ele><time>2015-06-24T10:17:14Z</time></trkpt><trkpt lat="51.7939339299" lon="-2.4458147865"><ele>11.19</ele><time>2015-06-24T10:17:16Z</time></trkpt><trkpt lat="51.7940521147" lon="-2.4458437879"><ele>11.19</ele><time>2015-06-24T10:17:27Z</time></trkpt><trkpt lat="51.7941018194" lon="-2.4458586238"><ele>11.67</ele><time>2015-06-24T10:17:31Z</time></trkpt><trkpt lat="51.7941283062" lon="-2.4458817579"><ele>11.19</ele><time>2015-06-24T10:17:34Z</time></trkpt><trkpt lat="51.7941788491" lon="-2.4458930735"><ele>10.71</ele><time>2015-06-24T10:17:39Z</time></trkpt><trkpt lat="51.7942984588" lon="-2.4459139444"><ele>11.19</ele><time>2015-06-24T10:17:51Z</time></trkpt><trkpt lat="51.7943268735" lon="-2.4459185544"><ele>10.23</ele><time>2015-06-24T10:17:57Z</time></trkpt><trkpt lat="51.7944212537" lon="-2.4459227454"><ele>10.23</ele><time>2015-06-24T10:18:06Z</time></trkpt><trkpt lat="51.7944498360" lon="-2.4459261820"><ele>12.15</ele><time>2015-06-24T10:18:09Z</time></trkpt><trkpt lat="51.7944624927" lon="-2.4459264334"><ele>10.71</ele><time>2015-06-24T10:18:11Z</time></trkpt><trkpt lat="51.7945199925" lon="-2.4459302053"><ele>12.15</ele><time>2015-06-24T10:18:17Z</time></trkpt><trkpt lat="51.7945505027" lon="-2.4459293671"><ele>12.15</ele><time>2015-06-24T10:18:20Z</time></trkpt><trkpt lat="51.7946685199" lon="-2.4459498189"><ele>11.67</ele><time>2015-06-24T10:18:32Z</time></trkpt><trkpt lat="51.7947546858" lon="-2.4459573627"><ele>10.23</ele><time>2015-06-24T10:18:43Z</time></trkpt><trkpt lat="51.7948321346" lon="-2.4459585361"><ele>10.71</ele><time>2015-06-24T10:18:52Z</time></trkpt><trkpt lat="51.7948686797" lon="-2.4459540937"><ele>11.67</ele><time>2015-06-24T10:18:56Z</time></trkpt><trkpt lat="51.7949328851" lon="-2.4459540099"><ele>11.67</ele><time>2015-06-24T10:19:06Z</time></trkpt><trkpt lat="51.7949676700" lon="-2.4459519144"><ele>10.23</ele><time>2015-06-24T10:19:10Z</time></trkpt><trkpt lat="51.7950524949" lon="-2.4459455442"><ele>11.19</ele><time>2015-06-24T10:19:19Z</time></trkpt><trkpt lat="51.7951971665" lon="-2.4459134415"><ele>11.19</ele><time>2015-06-24T10:19:32Z</time></trkpt><trkpt lat="51.7952208873" lon="-2.4459115975"><ele>10.71</ele><time>2015-06-24T10:19:35Z</time></trkpt><trkpt lat="51.7952658143" lon="-2.4458985217"><ele>11.19</ele><time>2015-06-24T10:19:39Z</time></trkpt><trkpt lat="51.7952981684" lon="-2.4458969291"><ele>10.71</ele><time>2015-06-24T10:19:42Z</time></trkpt><trkpt lat="51.7954359669" lon="-2.4458987731"><ele>11.19</ele><time>2015-06-24T10:19:54Z</time></trkpt><trkpt lat="51.7954763677" lon="-2.4458794948"><ele>11.19</ele><time>2015-06-24T10:19:58Z</time></trkpt><trkpt lat="51.7956227157" lon="-2.4458502419"><ele>11.67</ele><time>2015-06-24T10:20:11Z</time></trkpt><trkpt lat="51.7956316005" lon="-2.4458474759"><ele>11.67</ele><time>2015-06-24T10:20:12Z</time></trkpt><trkpt lat="51.7956937943" lon="-2.4458132777"><ele>10.23</ele><time>2015-06-24T10:20:19Z</time></trkpt><trkpt lat="51.7957211193" lon="-2.4458020460"><ele>11.67</ele><time>2015-06-24T10:20:22Z</time></trkpt><trkpt lat="51.7957407329" lon="-2.4458178878"><ele>11.19</ele><time>2015-06-24T10:20:38Z</time></trkpt><trkpt lat="51.7957440857" lon="-2.4458269402"><ele>11.19</ele><time>2015-06-24T10:21:12Z</time></trkpt><trkpt lat="51.7957440019" lon="-2.4458293710"><ele>11.19</ele><time>2015-06-24T10:21:36Z</time></trkpt><trkpt lat="51.7957412358" lon="-2.4458291195"><ele>11.19</ele><time>2015-06-24T10:21:58Z</time></trkpt><trkpt lat="51.7957557365" lon="-2.4458146188"><ele>10.23</ele><time>2015-06-24T10:22:23Z</time></trkpt><trkpt lat="51.7958156671" lon="-2.4457735475"><ele>11.19</ele><time>2015-06-24T10:22:33Z</time></trkpt><trkpt lat="51.7958400585" lon="-2.4457659200"><ele>10.71</ele><time>2015-06-24T10:22:36Z</time></trkpt><trkpt lat="51.7959070299" lon="-2.4457474798"><ele>10.71</ele><time>2015-06-24T10:22:43Z</time></trkpt><trkpt lat="51.7959672119" lon="-2.4457556102"><ele>11.19</ele><time>2015-06-24T10:22:56Z</time></trkpt><trkpt lat="51.7959872447" lon="-2.4457447976"><ele>11.19</ele><time>2015-06-24T10:23:03Z</time></trkpt><trkpt lat="51.7960796971" lon="-2.4456818495"><ele>11.67</ele><time>2015-06-24T10:23:14Z</time></trkpt><trkpt lat="51.7960908450" lon="-2.4456735514"><ele>11.19</ele><time>2015-06-24T10:23:15Z</time></trkpt><trkpt lat="51.7962438148" lon="-2.4456022214"><ele>11.19</ele><time>2015-06-24T10:23:29Z</time></trkpt><trkpt lat="51.7962680385" lon="-2.4455950968"><ele>11.19</ele><time>2015-06-24T10:23:31Z</time></trkpt><trkpt lat="51.7964162305" lon="-2.4455189053"><ele>11.19</ele><time>2015-06-24T10:23:44Z</time></trkpt><trkpt lat="51.7964338325" lon="-2.4455068354"><ele>11.67</ele><time>2015-06-24T10:23:46Z</time></trkpt><trkpt lat="51.7964646779" lon="-2.4454899877"><ele>11.19</ele><time>2015-06-24T10:23:49Z</time></trkpt><trkpt lat="51.7965947650" lon="-2.4454076774"><ele>11.67</ele><time>2015-06-24T10:24:01Z</time></trkpt><trkpt lat="51.7966924142" lon="-2.4453510996"><ele>11.19</ele><time>2015-06-24T10:24:11Z</time></trkpt><trkpt lat="51.7967427056" lon="-2.4453143030"><ele>10.71</ele><time>2015-06-24T10:24:16Z</time></trkpt><trkpt lat="51.7967723776" lon="-2.4453009758"><ele>11.19</ele><time>2015-06-24T10:24:19Z</time></trkpt><trkpt lat="51.7968287878" lon="-2.4452652689"><ele>11.19</ele><time>2015-06-24T10:24:24Z</time></trkpt><trkpt lat="51.7968518380" lon="-2.4452586472"><ele>10.71</ele><time>2015-06-24T10:24:26Z</time></trkpt><trkpt lat="51.7969973478" lon="-2.4451692961"><ele>10.71</ele><time>2015-06-24T10:24:40Z</time></trkpt><trkpt lat="51.7971352302" lon="-2.4450665340"><ele>11.19</ele><time>2015-06-24T10:24:53Z</time></trkpt><trkpt lat="51.7972215638" lon="-2.4449991435"><ele>11.67</ele><time>2015-06-24T10:25:01Z</time></trkpt><trkpt lat="51.7972408421" lon="-2.4449801166"><ele>11.19</ele><time>2015-06-24T10:25:03Z</time></trkpt><trkpt lat="51.7973690014" lon="-2.4449096248"><ele>11.19</ele><time>2015-06-24T10:25:15Z</time></trkpt><trkpt lat="51.7974391580" lon="-2.4448715709"><ele>11.19</ele><time>2015-06-24T10:25:21Z</time></trkpt><trkpt lat="51.7974695005" lon="-2.4448616803"><ele>10.71</ele><time>2015-06-24T10:25:24Z</time></trkpt><trkpt lat="51.7975159362" lon="-2.4448413961"><ele>10.71</ele><time>2015-06-24T10:25:28Z</time></trkpt><trkpt lat="51.7975392379" lon="-2.4448423181"><ele>11.19</ele><time>2015-06-24T10:25:30Z</time></trkpt><trkpt lat="51.7976558302" lon="-2.4447807949"><ele>11.19</ele><time>2015-06-24T10:25:40Z</time></trkpt><trkpt lat="51.7977316026" lon="-2.4447403941"><ele>11.67</ele><time>2015-06-24T10:25:47Z</time></trkpt><trkpt lat="51.7977611907" lon="-2.4447135720"><ele>11.19</ele><time>2015-06-24T10:25:50Z</time></trkpt><trkpt lat="51.7978926189" lon="-2.4446103908"><ele>11.19</ele><time>2015-06-24T10:26:03Z</time></trkpt><trkpt lat="51.7980206106" lon="-2.4445463531"><ele>11.19</ele><time>2015-06-24T10:26:14Z</time></trkpt><trkpt lat="51.7981568165" lon="-2.4444702454"><ele>11.67</ele><time>2015-06-24T10:26:27Z</time></trkpt><trkpt lat="51.7981829681" lon="-2.4444534816"><ele>10.23</ele><time>2015-06-24T10:26:30Z</time></trkpt><trkpt lat="51.7983242031" lon="-2.4443747755"><ele>10.23</ele><time>2015-06-24T10:26:43Z</time></trkpt><trkpt lat="51.7984753288" lon="-2.4443011824"><ele>11.19</ele><time>2015-06-24T10:26:56Z</time></trkpt><trkpt lat="51.7986314837" lon="-2.4442326184"><ele>11.67</ele><time>2015-06-24T10:27:09Z</time></trkpt><trkpt lat="51.7987504229" lon="-2.4441719335"><ele>10.71</ele><time>2015-06-24T10:27:20Z</time></trkpt><trkpt lat="51.7987976968" lon="-2.4441270065"><ele>11.19</ele><time>2015-06-24T10:27:25Z</time></trkpt><trkpt lat="51.7988161370" lon="-2.4441072252"><ele>11.19</ele><time>2015-06-24T10:27:27Z</time></trkpt><trkpt lat="51.7988719605" lon="-2.4440443609"><ele>11.19</ele><time>2015-06-24T10:27:33Z</time></trkpt><trkpt lat="51.7988927476" lon="-2.4440289382"><ele>11.67</ele><time>2015-06-24T10:27:35Z</time></trkpt><trkpt lat="51.7989320587" lon="-2.4439911358"><ele>10.71</ele><time>2015-06-24T10:27:39Z</time></trkpt><trkpt lat="51.7989618145" lon="-2.4439664092"><ele>11.19</ele><time>2015-06-24T10:27:42Z</time></trkpt><trkpt lat="51.7991062347" lon="-2.4438693468"><ele>10.71</ele><time>2015-06-24T10:27:55Z</time></trkpt><trkpt lat="51.7992411833" lon="-2.4437562749"><ele>11.67</ele><time>2015-06-24T10:28:08Z</time></trkpt><trkpt lat="51.7992734537" lon="-2.4437318835"><ele>10.71</ele><time>2015-06-24T10:28:11Z</time></trkpt><trkpt lat="51.7993158661" lon="-2.4436897226"><ele>11.19</ele><time>2015-06-24T10:28:15Z</time></trkpt><trkpt lat="51.7993456218" lon="-2.4436603859"><ele>11.19</ele><time>2015-06-24T10:28:18Z</time></trkpt><trkpt lat="51.7993970867" lon="-2.4436094239"><ele>11.19</ele><time>2015-06-24T10:28:23Z</time></trkpt><trkpt lat="51.7994229030" lon="-2.4435770698"><ele>10.71</ele><time>2015-06-24T10:28:26Z</time></trkpt><trkpt lat="51.7994642258" lon="-2.4435344897"><ele>11.19</ele><time>2015-06-24T10:28:30Z</time></trkpt><trkpt lat="51.7994871084" lon="-2.4435144570"><ele>11.19</ele><time>2015-06-24T10:28:32Z</time></trkpt><trkpt lat="51.7995270900" lon="-2.4434712064"><ele>11.19</ele><time>2015-06-24T10:28:37Z</time></trkpt><trkpt lat="51.7995401658" lon="-2.4434434623"><ele>11.19</ele><time>2015-06-24T10:28:39Z</time></trkpt><trkpt lat="51.7995799799" lon="-2.4433971103"><ele>11.19</ele><time>2015-06-24T10:28:43Z</time></trkpt><trkpt lat="51.7996349651" lon="-2.4433390237"><ele>11.19</ele><time>2015-06-24T10:28:54Z</time></trkpt><trkpt lat="51.7996886931" lon="-2.4432639219"><ele>11.19</ele><time>2015-06-24T10:29:07Z</time></trkpt><trkpt lat="51.7996907886" lon="-2.4432629999"><ele>10.71</ele><time>2015-06-24T10:29:08Z</time></trkpt><trkpt lat="51.7997134198" lon="-2.4432779197"><ele>11.67</ele><time>2015-06-24T10:29:23Z</time></trkpt><trkpt lat="51.7996894475" lon="-2.4431603216"><ele>10.71</ele><time>2015-06-24T10:29:36Z</time></trkpt><trkpt lat="51.7996782158" lon="-2.4430939369"><ele>10.23</ele><time>2015-06-24T10:29:39Z</time></trkpt><trkpt lat="51.7996609490" lon="-2.4429912586"><ele>10.71</ele><time>2015-06-24T10:29:43Z</time></trkpt><trkpt lat="51.7996409163" lon="-2.4428713135"><ele>10.23</ele><time>2015-06-24T10:29:52Z</time></trkpt><trkpt lat="51.7996160220" lon="-2.4425569922"><ele>9.75</ele><time>2015-06-24T10:30:11Z</time></trkpt><trkpt lat="51.7995701730" lon="-2.4424225464"><ele>10.23</ele><time>2015-06-24T10:30:30Z</time></trkpt><trkpt lat="51.7995647248" lon="-2.4424284976"><ele>9.75</ele><time>2015-06-24T10:31:01Z</time></trkpt><trkpt lat="51.7995577678" lon="-2.4424283300"><ele>10.71</ele><time>2015-06-24T10:31:29Z</time></trkpt><trkpt lat="51.7995526548" lon="-2.4424282461"><ele>10.23</ele><time>2015-06-24T10:31:58Z</time></trkpt><trkpt lat="51.7995507270" lon="-2.4424320180"><ele>10.23</ele><time>2015-06-24T10:32:22Z</time></trkpt><trkpt lat="51.7995495535" lon="-2.4424372986"><ele>6.87</ele><time>2015-06-24T10:32:35Z</time></trkpt><trkpt lat="51.7995492183" lon="-2.4424381368"><ele>11.19</ele><time>2015-06-24T10:32:36Z</time></trkpt><trkpt lat="51.7995410040" lon="-2.4424514640"><ele>10.71</ele><time>2015-06-24T10:32:59Z</time></trkpt><trkpt lat="51.7995390762" lon="-2.4424551520"><ele>11.19</ele><time>2015-06-24T10:33:27Z</time></trkpt><trkpt lat="51.7995390762" lon="-2.4424552359"><ele>6.87</ele><time>2015-06-24T10:33:28Z</time></trkpt><trkpt lat="51.7995389923" lon="-2.4424553197"><ele>13.12</ele><time>2015-06-24T10:33:29Z</time></trkpt><trkpt lat="51.7995362263" lon="-2.4424574152"><ele>9.27</ele><time>2015-06-24T10:33:57Z</time></trkpt><trkpt lat="51.7995360587" lon="-2.4424576666"><ele>17.44</ele><time>2015-06-24T10:33:59Z</time></trkpt><trkpt lat="51.7995361425" lon="-2.4424577504"><ele>12.63</ele><time>2015-06-24T10:34:00Z</time></trkpt><trkpt lat="51.7995361425" lon="-2.4424562417"><ele>10.71</ele><time>2015-06-24T10:34:11Z</time></trkpt><trkpt lat="51.7995318677" lon="-2.4424565770"><ele>10.71</ele><time>2015-06-24T10:34:42Z</time></trkpt><trkpt lat="51.7995317839" lon="-2.4424564932"><ele>10.71</ele><time>2015-06-24T10:35:10Z</time></trkpt><trkpt lat="51.7995537445" lon="-2.4423595145"><ele>10.71</ele><time>2015-06-24T10:35:34Z</time></trkpt><trkpt lat="51.7995631322" lon="-2.4423856661"><ele>10.71</ele><time>2015-06-24T10:35:54Z</time></trkpt><trkpt lat="51.7995629646" lon="-2.4424082972"><ele>10.71</ele><time>2015-06-24T10:36:17Z</time></trkpt><trkpt lat="51.7995544150" lon="-2.4424158409"><ele>10.71</ele><time>2015-06-24T10:36:49Z</time></trkpt><trkpt lat="51.7995503079" lon="-2.4424223788"><ele>5.42</ele><time>2015-06-24T10:37:01Z</time></trkpt><trkpt lat="51.7995496374" lon="-2.4424233846"><ele>11.67</ele><time>2015-06-24T10:37:02Z</time></trkpt><trkpt lat="51.7995463684" lon="-2.4424369633"><ele>10.71</ele><time>2015-06-24T10:37:30Z</time></trkpt><trkpt lat="51.7995443568" lon="-2.4424418248"><ele>10.71</ele><time>2015-06-24T10:37:56Z</time></trkpt><trkpt lat="51.7995473742" lon="-2.4424455967"><ele>10.71</ele><time>2015-06-24T10:38:21Z</time></trkpt><trkpt lat="51.7995489668" lon="-2.4424578343"><ele>11.19</ele><time>2015-06-24T10:38:43Z</time></trkpt><trkpt lat="51.7995542474" lon="-2.4424663838"><ele>10.23</ele><time>2015-06-24T10:39:10Z</time></trkpt><trkpt lat="51.7995675746" lon="-2.4424842373"><ele>10.71</ele><time>2015-06-24T10:39:28Z</time></trkpt><trkpt lat="51.7995822430" lon="-2.4424578343"><ele>10.71</ele><time>2015-06-24T10:39:50Z</time></trkpt><trkpt lat="51.7995767109" lon="-2.4424460996"><ele>9.75</ele><time>2015-06-24T10:40:12Z</time></trkpt><trkpt lat="51.7995645572" lon="-2.4424387235"><ele>10.71</ele><time>2015-06-24T10:40:34Z</time></trkpt><trkpt lat="51.7995546665" lon="-2.4424437527"><ele>-2.27</ele><time>2015-06-24T10:40:53Z</time></trkpt><trkpt lat="51.7995549180" lon="-2.4424432497"><ele>12.63</ele><time>2015-06-24T10:40:54Z</time></trkpt><trkpt lat="51.7995540798" lon="-2.4424315989"><ele>11.19</ele><time>2015-06-24T10:41:10Z</time></trkpt><trkpt lat="51.7995546665" lon="-2.4424195290"><ele>11.19</ele><time>2015-06-24T10:41:41Z</time></trkpt><trkpt lat="51.7995565105" lon="-2.4424174335"><ele>10.71</ele><time>2015-06-24T10:42:07Z</time></trkpt><trkpt lat="51.7995574325" lon="-2.4424187746"><ele>10.71</ele><time>2015-06-24T10:42:34Z</time></trkpt><trkpt lat="51.7995567620" lon="-2.4424258992"><ele>10.71</ele><time>2015-06-24T10:42:54Z</time></trkpt><trkpt lat="51.7995526548" lon="-2.4424227141"><ele>10.23</ele><time>2015-06-24T10:43:09Z</time></trkpt><trkpt lat="51.7995495535" lon="-2.4424300063"><ele>10.71</ele><time>2015-06-24T10:43:33Z</time></trkpt><trkpt lat="51.7995501403" lon="-2.4424379691"><ele>10.71</ele><time>2015-06-24T10:43:59Z</time></trkpt><trkpt lat="51.7995565943" lon="-2.4424740952"><ele>10.23</ele><time>2015-06-24T10:44:21Z</time></trkpt><trkpt lat="51.7995577678" lon="-2.4424946308"><ele>11.67</ele><time>2015-06-24T10:44:34Z</time></trkpt><trkpt lat="51.7995539960" lon="-2.4424793757"><ele>10.71</ele><time>2015-06-24T10:44:53Z</time></trkpt><trkpt lat="51.7995505594" lon="-2.4424664676"><ele>10.71</ele><time>2015-06-24T10:45:18Z</time></trkpt><trkpt lat="51.7995507270" lon="-2.4424555711"><ele>12.15</ele><time>2015-06-24T10:45:41Z</time></trkpt><trkpt lat="51.7995534092" lon="-2.4424543977"><ele>10.23</ele><time>2015-06-24T10:46:01Z</time></trkpt><trkpt lat="51.7995547503" lon="-2.4424516317"><ele>11.19</ele><time>2015-06-24T10:46:26Z</time></trkpt><trkpt lat="51.7995560076" lon="-2.4424508773"><ele>10.71</ele><time>2015-06-24T10:46:54Z</time></trkpt><trkpt lat="51.7995571811" lon="-2.4424467701"><ele>10.71</ele><time>2015-06-24T10:47:24Z</time></trkpt><trkpt lat="51.7995629646" lon="-2.4424440879"><ele>10.71</ele><time>2015-06-24T10:47:56Z</time></trkpt><trkpt lat="51.7995637190" lon="-2.4424467701"><ele>11.19</ele><time>2015-06-24T10:48:28Z</time></trkpt><trkpt lat="51.7995537445" lon="-2.4424509611"><ele>11.19</ele><time>2015-06-24T10:48:56Z</time></trkpt><trkpt lat="51.7995475419" lon="-2.4424504582"><ele>11.19</ele><time>2015-06-24T10:49:21Z</time></trkpt><trkpt lat="51.7995603662" lon="-2.4424453452"><ele>11.19</ele><time>2015-06-24T10:49:47Z</time></trkpt><trkpt lat="51.7995405011" lon="-2.4424376339"><ele>11.67</ele><time>2015-06-24T10:50:11Z</time></trkpt><trkpt lat="51.7995638028" lon="-2.4424916971"><ele>11.67</ele><time>2015-06-24T10:50:32Z</time></trkpt><trkpt lat="51.7995602824" lon="-2.4426016677"><ele>11.67</ele><time>2015-06-24T10:50:40Z</time></trkpt><trkpt lat="51.7995679099" lon="-2.4426688906"><ele>11.19</ele><time>2015-06-24T10:50:43Z</time></trkpt><trkpt lat="51.7996127531" lon="-2.4428714812"><ele>11.19</ele><time>2015-06-24T10:50:55Z</time></trkpt><trkpt lat="51.7996166926" lon="-2.4428589083"><ele>12.15</ele><time>2015-06-24T10:51:07Z</time></trkpt><trkpt lat="51.7996239010" lon="-2.4428938609"><ele>11.19</ele><time>2015-06-24T10:51:09Z</time></trkpt><trkpt lat="51.7996834964" lon="-2.4432163965"><ele>12.15</ele><time>2015-06-24T10:51:23Z</time></trkpt><trkpt lat="51.7996997572" lon="-2.4433036521"><ele>14.08</ele><time>2015-06-24T10:51:39Z</time></trkpt><trkpt lat="51.7996974103" lon="-2.4432091042"><ele>13.12</ele><time>2015-06-24T10:51:42Z</time></trkpt><trkpt lat="51.7996829934" lon="-2.4431097787"><ele>13.60</ele><time>2015-06-24T10:51:46Z</time></trkpt><trkpt lat="51.7996711750" lon="-2.4430279713"><ele>11.67</ele><time>2015-06-24T10:51:52Z</time></trkpt><trkpt lat="51.7996498011" lon="-2.4428765103"><ele>12.15</ele><time>2015-06-24T10:51:59Z</time></trkpt><trkpt lat="51.7996515613" lon="-2.4427845608"><ele>11.67</ele><time>2015-06-24T10:52:05Z</time></trkpt><trkpt lat="51.7996394914" lon="-2.4426429905"><ele>12.15</ele><time>2015-06-24T10:52:12Z</time></trkpt><trkpt lat="51.7995841708" lon="-2.4424280785"><ele>11.67</ele><time>2015-06-24T10:52:30Z</time></trkpt><trkpt lat="51.7995934747" lon="-2.4424025137"><ele>12.63</ele><time>2015-06-24T10:52:57Z</time></trkpt><trkpt lat="51.7995659821" lon="-2.4423620291"><ele>12.15</ele><time>2015-06-24T10:53:18Z</time></trkpt><trkpt lat="51.7995576840" lon="-2.4421951454"><ele>12.63</ele><time>2015-06-24T10:53:33Z</time></trkpt><trkpt lat="51.7995292693" lon="-2.4420497194"><ele>13.12</ele><time>2015-06-24T10:53:44Z</time></trkpt><trkpt lat="51.7995172832" lon="-2.4420316145"><ele>12.15</ele><time>2015-06-24T10:53:46Z</time></trkpt><trkpt lat="51.7995071411" lon="-2.4417717755"><ele>14.08</ele><time>2015-06-24T10:54:01Z</time></trkpt><trkpt lat="51.7995058000" lon="-2.4416278582"><ele>13.12</ele><time>2015-06-24T10:54:10Z</time></trkpt><trkpt lat="51.7994911317" lon="-2.4415509123"><ele>13.12</ele><time>2015-06-24T10:54:15Z</time></trkpt><trkpt lat="51.7994856834" lon="-2.4415233359"><ele>13.12</ele><time>2015-06-24T10:54:17Z</time></trkpt><trkpt lat="51.7994654831" lon="-2.4414664228"><ele>13.60</ele><time>2015-06-24T10:54:21Z</time></trkpt><trkpt lat="51.7994143534" lon="-2.4412241857"><ele>12.63</ele><time>2015-06-24T10:54:35Z</time></trkpt><trkpt lat="51.7993966676" lon="-2.4410466570"><ele>13.12</ele><time>2015-06-24T10:54:47Z</time></trkpt><trkpt lat="51.7993837595" lon="-2.4409415480"><ele>13.12</ele><time>2015-06-24T10:54:53Z</time></trkpt><trkpt lat="51.7992869485" lon="-2.4407039210"><ele>12.63</ele><time>2015-06-24T10:55:09Z</time></trkpt><trkpt lat="51.7991491500" lon="-2.4405831378"><ele>12.15</ele><time>2015-06-24T10:55:22Z</time></trkpt><trkpt lat="51.7990489025" lon="-2.4403984006"><ele>12.63</ele><time>2015-06-24T10:55:35Z</time></trkpt><trkpt lat="51.7990383413" lon="-2.4403440021"><ele>12.15</ele><time>2015-06-24T10:55:38Z</time></trkpt><trkpt lat="51.7990111001" lon="-2.4400606100"><ele>13.12</ele><time>2015-06-24T10:55:54Z</time></trkpt><trkpt lat="51.7989681009" lon="-2.4398406688"><ele>13.12</ele><time>2015-06-24T10:56:07Z</time></trkpt><trkpt lat="51.7989106849" lon="-2.4395522475"><ele>12.63</ele><time>2015-06-24T10:56:23Z</time></trkpt><trkpt lat="51.7988916580" lon="-2.4393447954"><ele>12.63</ele><time>2015-06-24T10:56:35Z</time></trkpt><trkpt lat="51.7988753133" lon="-2.4392421171"><ele>13.12</ele><time>2015-06-24T10:56:41Z</time></trkpt><trkpt lat="51.7988474853" lon="-2.4392051529"><ele>7.83</ele><time>2015-06-24T10:56:53Z</time></trkpt><trkpt lat="51.7988458090" lon="-2.4392059073"><ele>14.08</ele><time>2015-06-24T10:56:54Z</time></trkpt><trkpt lat="51.7988355830" lon="-2.4391710386"><ele>10.23</ele><time>2015-06-24T10:57:00Z</time></trkpt><trkpt lat="51.7988254409" lon="-2.4390754849"><ele>12.15</ele><time>2015-06-24T10:57:06Z</time></trkpt><trkpt lat="51.7988175619" lon="-2.4388846289"><ele>12.15</ele><time>2015-06-24T10:57:17Z</time></trkpt><trkpt lat="51.7988134548" lon="-2.4388470780"><ele>12.15</ele><time>2015-06-24T10:57:19Z</time></trkpt><trkpt lat="51.7987981997" lon="-2.4387577269"><ele>12.15</ele><time>2015-06-24T10:57:24Z</time></trkpt><trkpt lat="51.7987849563" lon="-2.4387061782"><ele>12.15</ele><time>2015-06-24T10:57:27Z</time></trkpt><trkpt lat="51.7987774126" lon="-2.4386469182"><ele>11.67</ele><time>2015-06-24T10:57:31Z</time></trkpt><trkpt lat="51.7987707909" lon="-2.4386113789"><ele>11.67</ele><time>2015-06-24T10:57:33Z</time></trkpt><trkpt lat="51.7987237684" lon="-2.4382897653"><ele>12.63</ele><time>2015-06-24T10:57:50Z</time></trkpt><trkpt lat="51.7987207510" lon="-2.4382669665"><ele>11.67</ele><time>2015-06-24T10:57:52Z</time></trkpt><trkpt lat="51.7987155542" lon="-2.4382128194"><ele>11.19</ele><time>2015-06-24T10:57:55Z</time></trkpt><trkpt lat="51.7987170629" lon="-2.4381560739"><ele>12.63</ele><time>2015-06-24T10:57:58Z</time></trkpt><trkpt lat="51.7987180687" lon="-2.4381269887"><ele>11.67</ele><time>2015-06-24T10:58:00Z</time></trkpt><trkpt lat="51.7987106927" lon="-2.4380896892"><ele>11.67</ele><time>2015-06-24T10:58:02Z</time></trkpt><trkpt lat="51.7987063341" lon="-2.4379979074"><ele>11.19</ele><time>2015-06-24T10:58:07Z</time></trkpt><trkpt lat="51.7986883968" lon="-2.4379217997"><ele>11.67</ele><time>2015-06-24T10:58:11Z</time></trkpt><trkpt lat="51.7986824457" lon="-2.4378907867"><ele>12.15</ele><time>2015-06-24T10:58:13Z</time></trkpt><trkpt lat="51.7986816075" lon="-2.4378566723"><ele>11.19</ele><time>2015-06-24T10:58:15Z</time></trkpt><trkpt lat="51.7986807693" lon="-2.4378366396"><ele>11.67</ele><time>2015-06-24T10:58:16Z</time></trkpt><trkpt lat="51.7986681126" lon="-2.4377297703"><ele>10.71</ele><time>2015-06-24T10:58:23Z</time></trkpt><trkpt lat="51.7986609880" lon="-2.4376707617"><ele>14.08</ele><time>2015-06-24T10:58:26Z</time></trkpt><trkpt lat="51.7986573000" lon="-2.4376496393"><ele>12.63</ele><time>2015-06-24T10:58:28Z</time></trkpt><trkpt lat="51.7986553721" lon="-2.4376064725"><ele>11.67</ele><time>2015-06-24T10:58:30Z</time></trkpt><trkpt lat="51.7986379378" lon="-2.4375264253"><ele>10.23</ele><time>2015-06-24T10:58:35Z</time></trkpt><trkpt lat="51.7986279633" lon="-2.4374664947"><ele>10.71</ele><time>2015-06-24T10:58:38Z</time></trkpt><trkpt lat="51.7986283824" lon="-2.4373599607"><ele>8.31</ele><time>2015-06-24T10:58:43Z</time></trkpt><trkpt lat="51.7986292206" lon="-2.4373369943"><ele>10.23</ele><time>2015-06-24T10:58:44Z</time></trkpt><trkpt lat="51.7986210063" lon="-2.4372723699"><ele>14.08</ele><time>2015-06-24T10:58:47Z</time></trkpt><trkpt lat="51.7986250296" lon="-2.4372399319"><ele>9.27</ele><time>2015-06-24T10:58:49Z</time></trkpt><trkpt lat="51.7985967826" lon="-2.4371126108"><ele>11.19</ele><time>2015-06-24T10:58:57Z</time></trkpt><trkpt lat="51.7985940166" lon="-2.4370816816"><ele>9.75</ele><time>2015-06-24T10:58:59Z</time></trkpt><trkpt lat="51.7985926755" lon="-2.4370633252"><ele>12.63</ele><time>2015-06-24T10:59:00Z</time></trkpt><trkpt lat="51.7985842098" lon="-2.4370061606"><ele>13.12</ele><time>2015-06-24T10:59:03Z</time></trkpt><trkpt lat="51.7985800188" lon="-2.4369696993"><ele>9.75</ele><time>2015-06-24T10:59:06Z</time></trkpt><trkpt lat="51.7985683680" lon="-2.4369156361"><ele>13.12</ele><time>2015-06-24T10:59:09Z</time></trkpt><trkpt lat="51.7985538673" lon="-2.4368669372"><ele>9.27</ele><time>2015-06-24T10:59:12Z</time></trkpt><trkpt lat="51.7985289730" lon="-2.4367553741"><ele>13.60</ele><time>2015-06-24T10:59:18Z</time></trkpt><trkpt lat="51.7985245306" lon="-2.4367452320"><ele>13.12</ele><time>2015-06-24T10:59:19Z</time></trkpt><trkpt lat="51.7985220160" lon="-2.4367329944"><ele>11.19</ele><time>2015-06-24T10:59:20Z</time></trkpt><trkpt lat="51.7985171545" lon="-2.4366989639"><ele>9.75</ele><time>2015-06-24T10:59:22Z</time></trkpt><trkpt lat="51.7985130474" lon="-2.4366768356"><ele>13.12</ele><time>2015-06-24T10:59:23Z</time></trkpt><trkpt lat="51.7985081021" lon="-2.4366369378"><ele>13.60</ele><time>2015-06-24T10:59:25Z</time></trkpt><trkpt lat="51.7985020671" lon="-2.4365841318"><ele>8.79</ele><time>2015-06-24T10:59:29Z</time></trkpt><trkpt lat="51.7984921765" lon="-2.4365158193"><ele>13.60</ele><time>2015-06-24T10:59:32Z</time></trkpt><trkpt lat="51.7984879017" lon="-2.4364989717"><ele>14.08</ele><time>2015-06-24T10:59:33Z</time></trkpt><trkpt lat="51.7984832916" lon="-2.4364734069"><ele>8.31</ele><time>2015-06-24T10:59:35Z</time></trkpt><trkpt lat="51.7984806933" lon="-2.4364555534"><ele>9.75</ele><time>2015-06-24T10:59:36Z</time></trkpt><trkpt lat="51.7984615825" lon="-2.4363392964"><ele>8.79</ele><time>2015-06-24T10:59:43Z</time></trkpt><trkpt lat="51.7984573916" lon="-2.4363209400"><ele>9.75</ele><time>2015-06-24T10:59:44Z</time></trkpt><trkpt lat="51.7984527815" lon="-2.4362981413"><ele>12.63</ele><time>2015-06-24T10:59:45Z</time></trkpt><trkpt lat="51.7984402087" lon="-2.4362321757"><ele>8.79</ele><time>2015-06-24T10:59:49Z</time></trkpt><trkpt lat="51.7984266300" lon="-2.4361592531"><ele>12.15</ele><time>2015-06-24T10:59:53Z</time></trkpt><trkpt lat="51.7984170746" lon="-2.4361178465"><ele>10.71</ele><time>2015-06-24T10:59:56Z</time></trkpt><trkpt lat="51.7984087765" lon="-2.4360844027"><ele>9.75</ele><time>2015-06-24T10:59:58Z</time></trkpt><trkpt lat="51.7984065134" lon="-2.4360661302"><ele>13.12</ele><time>2015-06-24T10:59:59Z</time></trkpt><trkpt lat="51.7983956169" lon="-2.4360104743"><ele>14.08</ele><time>2015-06-24T11:00:03Z</time></trkpt><trkpt lat="51.7983931024" lon="-2.4359557405"><ele>10.23</ele><time>2015-06-24T11:00:06Z</time></trkpt><trkpt lat="51.7983708903" lon="-2.4358989950"><ele>8.79</ele><time>2015-06-24T11:00:10Z</time></trkpt><trkpt lat="51.7983645201" lon="-2.4358634558"><ele>11.19</ele><time>2015-06-24T11:00:12Z</time></trkpt><trkpt lat="51.7983466666" lon="-2.4357599393"><ele>8.31</ele><time>2015-06-24T11:00:18Z</time></trkpt><trkpt lat="51.7983455770" lon="-2.4357408285"><ele>9.75</ele><time>2015-06-24T11:00:19Z</time></trkpt><trkpt lat="51.7983422242" lon="-2.4357218016"><ele>13.12</ele><time>2015-06-24T11:00:20Z</time></trkpt><trkpt lat="51.7983384524" lon="-2.4356899504"><ele>7.83</ele><time>2015-06-24T11:00:23Z</time></trkpt><trkpt lat="51.7983341776" lon="-2.4356544111"><ele>12.63</ele><time>2015-06-24T11:00:25Z</time></trkpt><trkpt lat="51.7983290646" lon="-2.4356332887"><ele>14.08</ele><time>2015-06-24T11:00:26Z</time></trkpt><trkpt lat="51.7983205151" lon="-2.4355642218"><ele>8.31</ele><time>2015-06-24T11:00:30Z</time></trkpt><trkpt lat="51.7983203474" lon="-2.4355449434"><ele>10.71</ele><time>2015-06-24T11:00:31Z</time></trkpt><trkpt lat="51.7983131390" lon="-2.4354324583"><ele>8.31</ele><time>2015-06-24T11:00:38Z</time></trkpt><trkpt lat="51.7983102892" lon="-2.4353962485"><ele>13.12</ele><time>2015-06-24T11:00:40Z</time></trkpt><trkpt lat="51.7983065173" lon="-2.4353298638"><ele>9.27</ele><time>2015-06-24T11:00:44Z</time></trkpt><trkpt lat="51.7982864007" lon="-2.4352592882"><ele>13.12</ele><time>2015-06-24T11:00:48Z</time></trkpt><trkpt lat="51.7982812040" lon="-2.4352200609"><ele>8.79</ele><time>2015-06-24T11:00:51Z</time></trkpt><trkpt lat="51.7982799467" lon="-2.4352053087"><ele>9.75</ele><time>2015-06-24T11:00:52Z</time></trkpt><trkpt lat="51.7982734926" lon="-2.4351619743"><ele>13.60</ele><time>2015-06-24T11:00:54Z</time></trkpt><trkpt lat="51.7982619256" lon="-2.4351124372"><ele>8.31</ele><time>2015-06-24T11:00:57Z</time></trkpt><trkpt lat="51.7982605007" lon="-2.4351004511"><ele>12.15</ele><time>2015-06-24T11:00:58Z</time></trkpt><trkpt lat="51.7982581537" lon="-2.4350834358"><ele>8.79</ele><time>2015-06-24T11:00:59Z</time></trkpt><trkpt lat="51.7982476763" lon="-2.4350157939"><ele>13.12</ele><time>2015-06-24T11:01:02Z</time></trkpt><trkpt lat="51.7982466705" lon="-2.4350010417"><ele>13.60</ele><time>2015-06-24T11:01:03Z</time></trkpt><trkpt lat="51.7982514482" lon="-2.4349883012"><ele>11.67</ele><time>2015-06-24T11:01:04Z</time></trkpt><trkpt lat="51.7982548010" lon="-2.4349523429"><ele>10.23</ele><time>2015-06-24T11:01:06Z</time></trkpt><trkpt lat="51.7982579023" lon="-2.4349070806"><ele>14.08</ele><time>2015-06-24T11:01:08Z</time></trkpt><trkpt lat="51.7982506100" lon="-2.4348446354"><ele>11.19</ele><time>2015-06-24T11:01:12Z</time></trkpt><trkpt lat="51.7982432339" lon="-2.4348064978"><ele>10.23</ele><time>2015-06-24T11:01:14Z</time></trkpt><trkpt lat="51.7982308287" lon="-2.4347435497"><ele>8.31</ele><time>2015-06-24T11:01:18Z</time></trkpt><trkpt lat="51.7982288171" lon="-2.4347082619"><ele>11.67</ele><time>2015-06-24T11:01:20Z</time></trkpt><trkpt lat="51.7982084490" lon="-2.4346226826"><ele>12.15</ele><time>2015-06-24T11:01:25Z</time></trkpt><trkpt lat="51.7982070241" lon="-2.4345894065"><ele>9.75</ele><time>2015-06-24T11:01:27Z</time></trkpt><trkpt lat="51.7982056830" lon="-2.4345266260"><ele>13.60</ele><time>2015-06-24T11:01:30Z</time></trkpt><trkpt lat="51.7981998995" lon="-2.4344997201"><ele>8.79</ele><time>2015-06-24T11:01:32Z</time></trkpt><trkpt lat="51.7981840577" lon="-2.4343936052"><ele>13.12</ele><time>2015-06-24T11:01:38Z</time></trkpt><trkpt lat="51.7981854826" lon="-2.4343831278"><ele>4.46</ele><time>2015-06-24T11:01:39Z</time></trkpt><trkpt lat="51.7981892545" lon="-2.4343693815"><ele>12.63</ele><time>2015-06-24T11:01:40Z</time></trkpt><trkpt lat="51.7981867399" lon="-2.4343344290"><ele>13.60</ele><time>2015-06-24T11:01:42Z</time></trkpt><trkpt lat="51.7981861532" lon="-2.4343267176"><ele>7.83</ele><time>2015-06-24T11:01:43Z</time></trkpt><trkpt lat="51.7981869075" lon="-2.4343183357"><ele>8.31</ele><time>2015-06-24T11:01:44Z</time></trkpt><trkpt lat="51.7981859855" lon="-2.4343065172"><ele>10.23</ele><time>2015-06-24T11:01:45Z</time></trkpt><trkpt lat="51.7981685512" lon="-2.4342594948"><ele>15.04</ele><time>2015-06-24T11:01:48Z</time></trkpt><trkpt lat="51.7981649470" lon="-2.4342475086"><ele>11.19</ele><time>2015-06-24T11:01:49Z</time></trkpt><trkpt lat="51.7981380410" lon="-2.4341846444"><ele>10.23</ele><time>2015-06-24T11:01:55Z</time></trkpt><trkpt lat="51.7981339339" lon="-2.4341446627"><ele>14.08</ele><time>2015-06-24T11:01:57Z</time></trkpt><trkpt lat="51.7981356941" lon="-2.4341266416"><ele>9.75</ele><time>2015-06-24T11:01:58Z</time></trkpt><trkpt lat="51.7981373705" lon="-2.4341134820"><ele>13.12</ele><time>2015-06-24T11:01:59Z</time></trkpt><trkpt lat="51.7981363647" lon="-2.4340978917"><ele>8.79</ele><time>2015-06-24T11:02:00Z</time></trkpt><trkpt lat="51.7981322575" lon="-2.4340804573"><ele>9.75</ele><time>2015-06-24T11:02:01Z</time></trkpt><trkpt lat="51.7981303297" lon="-2.4340155814"><ele>8.31</ele><time>2015-06-24T11:02:05Z</time></trkpt><trkpt lat="51.7981289886" lon="-2.4339978117"><ele>10.23</ele><time>2015-06-24T11:02:06Z</time></trkpt><trkpt lat="51.7981193494" lon="-2.4339260627"><ele>8.79</ele><time>2015-06-24T11:02:10Z</time></trkpt><trkpt lat="51.7981156614" lon="-2.4339119811"><ele>10.23</ele><time>2015-06-24T11:02:11Z</time></trkpt><trkpt lat="51.7981078662" lon="-2.4338527210"><ele>14.08</ele><time>2015-06-24T11:02:14Z</time></trkpt><trkpt lat="51.7981065251" lon="-2.4338397291"><ele>13.12</ele><time>2015-06-24T11:02:15Z</time></trkpt><trkpt lat="51.7981076147" lon="-2.4338258151"><ele>8.31</ele><time>2015-06-24T11:02:16Z</time></trkpt><trkpt lat="51.7980889231" lon="-2.4337720033"><ele>15.04</ele><time>2015-06-24T11:02:19Z</time></trkpt><trkpt lat="51.7980791163" lon="-2.4337533955"><ele>13.12</ele><time>2015-06-24T11:02:20Z</time></trkpt><trkpt lat="51.7980739195" lon="-2.4337418284"><ele>8.31</ele><time>2015-06-24T11:02:21Z</time></trkpt><trkpt lat="51.7980740871" lon="-2.4337145034"><ele>5.91</ele><time>2015-06-24T11:02:23Z</time></trkpt><trkpt lat="51.7980721593" lon="-2.4337015115"><ele>10.71</ele><time>2015-06-24T11:02:24Z</time></trkpt><trkpt lat="51.7980703153" lon="-2.4336898606"><ele>7.35</ele><time>2015-06-24T11:02:25Z</time></trkpt><trkpt lat="51.7980669625" lon="-2.4336810596"><ele>13.12</ele><time>2015-06-24T11:02:26Z</time></trkpt><trkpt lat="51.7980639450" lon="-2.4336725939"><ele>8.79</ele><time>2015-06-24T11:02:27Z</time></trkpt><trkpt lat="51.7980601732" lon="-2.4336418323"><ele>10.23</ele><time>2015-06-24T11:02:29Z</time></trkpt><trkpt lat="51.7980574071" lon="-2.4335794710"><ele>8.79</ele><time>2015-06-24T11:02:33Z</time></trkpt><trkpt lat="51.7980543058" lon="-2.4335616175"><ele>10.23</ele><time>2015-06-24T11:02:34Z</time></trkpt><trkpt lat="51.7980488576" lon="-2.4335178640"><ele>15.52</ele><time>2015-06-24T11:02:36Z</time></trkpt><trkpt lat="51.7980460078" lon="-2.4334984180"><ele>13.12</ele><time>2015-06-24T11:02:37Z</time></trkpt><trkpt lat="51.7980411462" lon="-2.4334858451"><ele>8.31</ele><time>2015-06-24T11:02:38Z</time></trkpt><trkpt lat="51.7980412301" lon="-2.4334738590"><ele>13.12</ele><time>2015-06-24T11:02:39Z</time></trkpt><trkpt lat="51.7980432417" lon="-2.4334559217"><ele>8.79</ele><time>2015-06-24T11:02:40Z</time></trkpt><trkpt lat="51.7980377097" lon="-2.4334184546"><ele>12.63</ele><time>2015-06-24T11:02:42Z</time></trkpt><trkpt lat="51.7980347760" lon="-2.4333777186"><ele>8.79</ele><time>2015-06-24T11:02:45Z</time></trkpt><trkpt lat="51.7980324291" lon="-2.4333616253"><ele>10.71</ele><time>2015-06-24T11:02:46Z</time></trkpt><trkpt lat="51.7980239633" lon="-2.4333291873"><ele>15.04</ele><time>2015-06-24T11:02:48Z</time></trkpt><trkpt lat="51.7980223708" lon="-2.4333161954"><ele>11.67</ele><time>2015-06-24T11:02:49Z</time></trkpt><trkpt lat="51.7980213650" lon="-2.4332884513"><ele>11.19</ele><time>2015-06-24T11:02:51Z</time></trkpt><trkpt lat="51.7980141565" lon="-2.4332307838"><ele>13.12</ele><time>2015-06-24T11:02:54Z</time></trkpt><trkpt lat="51.7980117258" lon="-2.4332082365"><ele>11.19</ele><time>2015-06-24T11:02:56Z</time></trkpt><trkpt lat="51.7980077025" lon="-2.4331765529"><ele>10.71</ele><time>2015-06-24T11:02:58Z</time></trkpt><trkpt lat="51.7979971413" lon="-2.4331419356"><ele>14.56</ele><time>2015-06-24T11:03:00Z</time></trkpt><trkpt lat="51.7979954649" lon="-2.4331160355"><ele>8.79</ele><time>2015-06-24T11:03:02Z</time></trkpt><trkpt lat="51.7979942914" lon="-2.4330992717"><ele>10.71</ele><time>2015-06-24T11:03:03Z</time></trkpt><trkpt lat="51.7979820538" lon="-2.4330385029"><ele>14.08</ele><time>2015-06-24T11:03:07Z</time></trkpt><trkpt lat="51.7979806289" lon="-2.4330267683"><ele>10.23</ele><time>2015-06-24T11:03:08Z</time></trkpt><trkpt lat="51.7979719117" lon="-2.4329735432"><ele>14.56</ele><time>2015-06-24T11:03:11Z</time></trkpt><trkpt lat="51.7979659606" lon="-2.4329617247"><ele>13.60</ele><time>2015-06-24T11:03:12Z</time></trkpt><trkpt lat="51.7979646195" lon="-2.4329529237"><ele>8.79</ele><time>2015-06-24T11:03:13Z</time></trkpt><trkpt lat="51.7979653738" lon="-2.4329395965"><ele>9.27</ele><time>2015-06-24T11:03:14Z</time></trkpt><trkpt lat="51.7979665473" lon="-2.4329221621"><ele>12.15</ele><time>2015-06-24T11:03:15Z</time></trkpt><trkpt lat="51.7979502864" lon="-2.4328670092"><ele>9.27</ele><time>2015-06-24T11:03:19Z</time></trkpt><trkpt lat="51.7979504541" lon="-2.4328318052"><ele>11.67</ele><time>2015-06-24T11:03:21Z</time></trkpt><trkpt lat="51.7979460955" lon="-2.4327691924"><ele>8.31</ele><time>2015-06-24T11:03:25Z</time></trkpt><trkpt lat="51.7979460116" lon="-2.4327510875"><ele>9.75</ele><time>2015-06-24T11:03:26Z</time></trkpt><trkpt lat="51.7979419883" lon="-2.4327117763"><ele>16.48</ele><time>2015-06-24T11:03:28Z</time></trkpt><trkpt lat="51.7979374621" lon="-2.4326951802"><ele>8.31</ele><time>2015-06-24T11:03:29Z</time></trkpt><trkpt lat="51.7979388032" lon="-2.4326849543"><ele>12.63</ele><time>2015-06-24T11:03:30Z</time></trkpt><trkpt lat="51.7979393899" lon="-2.4326717947"><ele>15.04</ele><time>2015-06-24T11:03:31Z</time></trkpt><trkpt lat="51.7979310919" lon="-2.4325865507"><ele>16.00</ele><time>2015-06-24T11:03:35Z</time></trkpt><trkpt lat="51.7979263980" lon="-2.4325703736"><ele>12.15</ele><time>2015-06-24T11:03:36Z</time></trkpt><trkpt lat="51.7979186028" lon="-2.4325373489"><ele>11.67</ele><time>2015-06-24T11:03:38Z</time></trkpt><trkpt lat="51.7979161721" lon="-2.4325186573"><ele>13.12</ele><time>2015-06-24T11:03:39Z</time></trkpt><trkpt lat="51.7979004979" lon="-2.4324719701"><ele>15.04</ele><time>2015-06-24T11:03:42Z</time></trkpt><trkpt lat="51.7979000788" lon="-2.4324516859"><ele>8.31</ele><time>2015-06-24T11:03:44Z</time></trkpt><trkpt lat="51.7978876736" lon="-2.4323998019"><ele>14.08</ele><time>2015-06-24T11:03:47Z</time></trkpt><trkpt lat="51.7978843208" lon="-2.4323811103"><ele>12.63</ele><time>2015-06-24T11:03:48Z</time></trkpt><trkpt lat="51.7978839856" lon="-2.4323697947"><ele>8.79</ele><time>2015-06-24T11:03:49Z</time></trkpt><trkpt lat="51.7978787050" lon="-2.4323273823"><ele>9.27</ele><time>2015-06-24T11:03:52Z</time></trkpt><trkpt lat="51.7978688143" lon="-2.4322923459"><ele>14.08</ele><time>2015-06-24T11:03:54Z</time></trkpt><trkpt lat="51.7978663836" lon="-2.4322819524"><ele>14.08</ele><time>2015-06-24T11:03:55Z</time></trkpt><trkpt lat="51.7978638690" lon="-2.4322719779"><ele>8.79</ele><time>2015-06-24T11:03:56Z</time></trkpt><trkpt lat="51.7978606839" lon="-2.4322592374"><ele>9.27</ele><time>2015-06-24T11:03:57Z</time></trkpt><trkpt lat="51.7978423275" lon="-2.4322086107"><ele>14.56</ele><time>2015-06-24T11:04:00Z</time></trkpt><trkpt lat="51.7978389747" lon="-2.4321974628"><ele>11.19</ele><time>2015-06-24T11:04:01Z</time></trkpt><trkpt lat="51.7978359573" lon="-2.4321876559"><ele>8.31</ele><time>2015-06-24T11:04:02Z</time></trkpt><trkpt lat="51.7978290003" lon="-2.4321603309"><ele>12.63</ele><time>2015-06-24T11:04:04Z</time></trkpt><trkpt lat="51.7978199478" lon="-2.4321213551"><ele>12.15</ele><time>2015-06-24T11:04:06Z</time></trkpt><trkpt lat="51.7978211213" lon="-2.4320815410"><ele>7.83</ele><time>2015-06-24T11:04:09Z</time></trkpt><trkpt lat="51.7978181038" lon="-2.4320648611"><ele>10.23</ele><time>2015-06-24T11:04:10Z</time></trkpt><trkpt lat="51.7978082132" lon="-2.4320250470"><ele>13.60</ele><time>2015-06-24T11:04:12Z</time></trkpt><trkpt lat="51.7978022620" lon="-2.4320078641"><ele>12.63</ele><time>2015-06-24T11:04:13Z</time></trkpt><trkpt lat="51.7978008371" lon="-2.4319950398"><ele>8.31</ele><time>2015-06-24T11:04:14Z</time></trkpt><trkpt lat="51.7977993283" lon="-2.4319827184"><ele>9.75</ele><time>2015-06-24T11:04:15Z</time></trkpt><trkpt lat="51.7977976520" lon="-2.4319686368"><ele>8.31</ele><time>2015-06-24T11:04:16Z</time></trkpt><trkpt lat="51.7977924552" lon="-2.4319279008"><ele>11.19</ele><time>2015-06-24T11:04:18Z</time></trkpt><trkpt lat="51.7977911979" lon="-2.4318925291"><ele>14.08</ele><time>2015-06-24T11:04:20Z</time></trkpt><trkpt lat="51.7977922037" lon="-2.4318799563"><ele>10.23</ele><time>2015-06-24T11:04:21Z</time></trkpt><trkpt lat="51.7977850791" lon="-2.4318078719"><ele>14.56</ele><time>2015-06-24T11:04:25Z</time></trkpt><trkpt lat="51.7977781221" lon="-2.4317735899"><ele>8.31</ele><time>2015-06-24T11:04:27Z</time></trkpt><trkpt lat="51.7977764457" lon="-2.4317645375"><ele>9.27</ele><time>2015-06-24T11:04:28Z</time></trkpt><trkpt lat="51.7977745179" lon="-2.4317511264"><ele>7.83</ele><time>2015-06-24T11:04:29Z</time></trkpt><trkpt lat="51.7977578379" lon="-2.4316998292"><ele>14.56</ele><time>2015-06-24T11:04:32Z</time></trkpt><trkpt lat="51.7977531441" lon="-2.4316836521"><ele>11.19</ele><time>2015-06-24T11:04:33Z</time></trkpt><trkpt lat="51.7977533955" lon="-2.4316693190"><ele>7.35</ele><time>2015-06-24T11:04:34Z</time></trkpt><trkpt lat="51.7977535632" lon="-2.4316548184"><ele>9.27</ele><time>2015-06-24T11:04:35Z</time></trkpt><trkpt lat="51.7977484502" lon="-2.4316184409"><ele>14.56</ele><time>2015-06-24T11:04:37Z</time></trkpt><trkpt lat="51.7977461871" lon="-2.4315518886"><ele>7.35</ele><time>2015-06-24T11:04:41Z</time></trkpt><trkpt lat="51.7977473605" lon="-2.4315088056"><ele>12.15</ele><time>2015-06-24T11:04:43Z</time></trkpt><trkpt lat="51.7977455165" lon="-2.4314541556"><ele>12.63</ele><time>2015-06-24T11:04:45Z</time></trkpt><trkpt lat="51.7977485340" lon="-2.4314335361"><ele>7.35</ele><time>2015-06-24T11:04:46Z</time></trkpt><trkpt lat="51.7977487855" lon="-2.4314175267"><ele>9.27</ele><time>2015-06-24T11:04:47Z</time></trkpt><trkpt lat="51.7977437563" lon="-2.4313814007"><ele>13.60</ele><time>2015-06-24T11:04:49Z</time></trkpt><trkpt lat="51.7977300938" lon="-2.4313316122"><ele>10.23</ele><time>2015-06-24T11:04:53Z</time></trkpt><trkpt lat="51.7977290042" lon="-2.4313182849"><ele>8.79</ele><time>2015-06-24T11:04:54Z</time></trkpt><trkpt lat="51.7977258191" lon="-2.4312587734"><ele>13.60</ele><time>2015-06-24T11:04:57Z</time></trkpt><trkpt lat="51.7977258191" lon="-2.4312444404"><ele>10.71</ele><time>2015-06-24T11:04:58Z</time></trkpt><trkpt lat="51.7977290880" lon="-2.4312328734"><ele>8.31</ele><time>2015-06-24T11:04:59Z</time></trkpt><trkpt lat="51.7977207061" lon="-2.4312002677"><ele>8.79</ele><time>2015-06-24T11:05:01Z</time></trkpt><trkpt lat="51.7977039423" lon="-2.4311534129"><ele>14.56</ele><time>2015-06-24T11:05:04Z</time></trkpt><trkpt lat="51.7977002542" lon="-2.4311419297"><ele>8.79</ele><time>2015-06-24T11:05:05Z</time></trkpt><trkpt lat="51.7976959795" lon="-2.4311289378"><ele>8.79</ele><time>2015-06-24T11:05:06Z</time></trkpt><trkpt lat="51.7976919562" lon="-2.4311211426"><ele>11.67</ele><time>2015-06-24T11:05:07Z</time></trkpt><trkpt lat="51.7976842448" lon="-2.4311141856"><ele>16.00</ele><time>2015-06-24T11:05:08Z</time></trkpt><trkpt lat="51.7976806406" lon="-2.4311034568"><ele>9.75</ele><time>2015-06-24T11:05:09Z</time></trkpt><trkpt lat="51.7976750247" lon="-2.4310965836"><ele>5.42</ele><time>2015-06-24T11:05:10Z</time></trkpt><trkpt lat="51.7976680677" lon="-2.4310858548"><ele>10.71</ele><time>2015-06-24T11:05:11Z</time></trkpt><trkpt lat="51.7976557463" lon="-2.4310490582"><ele>15.04</ele><time>2015-06-24T11:05:13Z</time></trkpt><trkpt lat="51.7976413295" lon="-2.4309921451"><ele>7.83</ele><time>2015-06-24T11:05:17Z</time></trkpt><trkpt lat="51.7976322770" lon="-2.4309571087"><ele>12.63</ele><time>2015-06-24T11:05:19Z</time></trkpt><trkpt lat="51.7976269964" lon="-2.4309260957"><ele>8.31</ele><time>2015-06-24T11:05:21Z</time></trkpt><trkpt lat="51.7976238951" lon="-2.4309159536"><ele>8.31</ele><time>2015-06-24T11:05:22Z</time></trkpt><trkpt lat="51.7976197042" lon="-2.4308841024"><ele>15.04</ele><time>2015-06-24T11:05:24Z</time></trkpt><trkpt lat="51.7976174410" lon="-2.4308637343"><ele>12.15</ele><time>2015-06-24T11:05:25Z</time></trkpt><trkpt lat="51.7976150103" lon="-2.4308474734"><ele>15.52</ele><time>2015-06-24T11:05:26Z</time></trkpt><trkpt lat="51.7976148427" lon="-2.4308380857"><ele>11.67</ele><time>2015-06-24T11:05:27Z</time></trkpt><trkpt lat="51.7976180278" lon="-2.4308292009"><ele>5.42</ele><time>2015-06-24T11:05:28Z</time></trkpt><trkpt lat="51.7976176925" lon="-2.4308196455"><ele>10.71</ele><time>2015-06-24T11:05:29Z</time></trkpt><trkpt lat="51.7976147588" lon="-2.4308082461"><ele>14.08</ele><time>2015-06-24T11:05:30Z</time></trkpt><trkpt lat="51.7976140883" lon="-2.4307977688"><ele>13.12</ele><time>2015-06-24T11:05:31Z</time></trkpt><trkpt lat="51.7976162676" lon="-2.4307862017"><ele>8.79</ele><time>2015-06-24T11:05:32Z</time></trkpt><trkpt lat="51.7976175249" lon="-2.4307715334"><ele>9.75</ele><time>2015-06-24T11:05:33Z</time></trkpt><trkpt lat="51.7976093106" lon="-2.4306751415"><ele>9.27</ele><time>2015-06-24T11:05:39Z</time></trkpt><trkpt lat="51.7976042815" lon="-2.4306237604"><ele>13.60</ele><time>2015-06-24T11:05:42Z</time></trkpt><trkpt lat="51.7976038624" lon="-2.4306131992"><ele>9.75</ele><time>2015-06-24T11:05:43Z</time></trkpt><trkpt lat="51.7975938041" lon="-2.4305495806"><ele>12.15</ele><time>2015-06-24T11:05:47Z</time></trkpt><trkpt lat="51.7975948937" lon="-2.4305351637"><ele>7.83</ele><time>2015-06-24T11:05:48Z</time></trkpt><trkpt lat="51.7975939717" lon="-2.4305178970"><ele>9.75</ele><time>2015-06-24T11:05:49Z</time></trkpt><trkpt lat="51.7975828238" lon="-2.4304219242"><ele>9.27</ele><time>2015-06-24T11:05:55Z</time></trkpt><trkpt lat="51.7975818180" lon="-2.4304016400"><ele>11.19</ele><time>2015-06-24T11:05:56Z</time></trkpt><trkpt lat="51.7975743581" lon="-2.4303681124"><ele>12.15</ele><time>2015-06-24T11:05:58Z</time></trkpt><trkpt lat="51.7975749448" lon="-2.4303569645"><ele>8.31</ele><time>2015-06-24T11:05:59Z</time></trkpt><trkpt lat="51.7975745257" lon="-2.4303448945"><ele>9.27</ele><time>2015-06-24T11:06:00Z</time></trkpt><trkpt lat="51.7975662276" lon="-2.4303072598"><ele>9.75</ele><time>2015-06-24T11:06:02Z</time></trkpt><trkpt lat="51.7975624558" lon="-2.4302734807"><ele>13.12</ele><time>2015-06-24T11:06:04Z</time></trkpt><trkpt lat="51.7975655571" lon="-2.4302585609"><ele>8.79</ele><time>2015-06-24T11:06:05Z</time></trkpt><trkpt lat="51.7975541577" lon="-2.4302025698"><ele>13.12</ele><time>2015-06-24T11:06:08Z</time></trkpt><trkpt lat="51.7975500505" lon="-2.4301884044"><ele>12.63</ele><time>2015-06-24T11:06:09Z</time></trkpt><trkpt lat="51.7975487094" lon="-2.4301737361"><ele>8.79</ele><time>2015-06-24T11:06:10Z</time></trkpt><trkpt lat="51.7975450214" lon="-2.4301583972"><ele>8.79</ele><time>2015-06-24T11:06:11Z</time></trkpt><trkpt lat="51.7975098174" lon="-2.4300174136"><ele>13.12</ele><time>2015-06-24T11:06:20Z</time></trkpt><trkpt lat="51.7975055426" lon="-2.4300073553"><ele>8.79</ele><time>2015-06-24T11:06:21Z</time></trkpt><trkpt lat="51.7975015193" lon="-2.4299941957"><ele>9.75</ele><time>2015-06-24T11:06:22Z</time></trkpt><trkpt lat="51.7974850070" lon="-2.4299547169"><ele>9.75</ele><time>2015-06-24T11:06:25Z</time></trkpt><trkpt lat="51.7974592745" lon="-2.4299806170"><ele>6.87</ele><time>2015-06-24T11:06:27Z</time></trkpt><trkpt lat="51.7974484619" lon="-2.4299900047"><ele>9.27</ele><time>2015-06-24T11:06:28Z</time></trkpt><trkpt lat="51.7974276748" lon="-2.4299987219"><ele>10.23</ele><time>2015-06-24T11:06:30Z</time></trkpt><trkpt lat="51.7974223103" lon="-2.4300040025"><ele>14.56</ele><time>2015-06-24T11:06:31Z</time></trkpt><trkpt lat="51.7973957397" lon="-2.4300077744"><ele>9.27</ele><time>2015-06-24T11:06:34Z</time></trkpt><trkpt lat="51.7973805685" lon="-2.4300058465"><ele>13.60</ele><time>2015-06-24T11:06:36Z</time></trkpt><trkpt lat="51.7973798141" lon="-2.4300067686"><ele>8.79</ele><time>2015-06-24T11:06:37Z</time></trkpt><trkpt lat="51.7974067200" lon="-2.4300310761"><ele>10.23</ele><time>2015-06-24T11:06:45Z</time></trkpt><trkpt lat="51.7974469531" lon="-2.4300223589"><ele>6.87</ele><time>2015-06-24T11:06:49Z</time></trkpt><trkpt lat="51.7974558380" lon="-2.4300169945"><ele>8.79</ele><time>2015-06-24T11:06:50Z</time></trkpt><trkpt lat="51.7974768765" lon="-2.4299872387"><ele>12.15</ele><time>2015-06-24T11:06:52Z</time></trkpt><trkpt lat="51.7974946462" lon="-2.4299581535"><ele>10.71</ele><time>2015-06-24T11:06:55Z</time></trkpt><trkpt lat="51.7974989209" lon="-2.4299681280"><ele>6.39</ele><time>2015-06-24T11:07:04Z</time></trkpt><trkpt lat="51.7974987533" lon="-2.4299668707"><ele>7.83</ele><time>2015-06-24T11:07:05Z</time></trkpt><trkpt lat="51.7974929698" lon="-2.4299397133"><ele>7.35</ele><time>2015-06-24T11:07:07Z</time></trkpt><trkpt lat="51.7974834982" lon="-2.4298636895"><ele>7.35</ele><time>2015-06-24T11:07:12Z</time></trkpt><trkpt lat="51.7974627949" lon="-2.4297817145"><ele>8.79</ele><time>2015-06-24T11:07:17Z</time></trkpt><trkpt lat="51.7974391580" lon="-2.4297088757"><ele>13.12</ele><time>2015-06-24T11:07:21Z</time></trkpt><trkpt lat="51.7974280100" lon="-2.4296767730"><ele>8.31</ele><time>2015-06-24T11:07:23Z</time></trkpt><trkpt lat="51.7974270042" lon="-2.4296604283"><ele>8.79</ele><time>2015-06-24T11:07:24Z</time></trkpt><trkpt lat="51.7974163592" lon="-2.4296106398"><ele>12.63</ele><time>2015-06-24T11:07:27Z</time></trkpt><trkpt lat="51.7974189576" lon="-2.4295749329"><ele>6.39</ele><time>2015-06-24T11:07:30Z</time></trkpt><trkpt lat="51.7974193767" lon="-2.4295646232"><ele>11.67</ele><time>2015-06-24T11:07:31Z</time></trkpt><trkpt lat="51.7974183708" lon="-2.4295486137"><ele>6.87</ele><time>2015-06-24T11:07:32Z</time></trkpt><trkpt lat="51.7974136770" lon="-2.4294903595"><ele>14.08</ele><time>2015-06-24T11:07:35Z</time></trkpt><trkpt lat="51.7974083964" lon="-2.4294626154"><ele>6.39</ele><time>2015-06-24T11:07:37Z</time></trkpt><trkpt lat="51.7974038702" lon="-2.4294446781"><ele>9.27</ele><time>2015-06-24T11:07:38Z</time></trkpt><trkpt lat="51.7973912135" lon="-2.4294018466"><ele>12.63</ele><time>2015-06-24T11:07:40Z</time></trkpt><trkpt lat="51.7973834183" lon="-2.4293726776"><ele>8.31</ele><time>2015-06-24T11:07:42Z</time></trkpt><trkpt lat="51.7973840050" lon="-2.4293630384"><ele>11.67</ele><time>2015-06-24T11:07:43Z</time></trkpt><trkpt lat="51.7973860167" lon="-2.4293497112"><ele>7.83</ele><time>2015-06-24T11:07:44Z</time></trkpt><trkpt lat="51.7973841727" lon="-2.4293081369"><ele>9.75</ele><time>2015-06-24T11:07:46Z</time></trkpt><trkpt lat="51.7973876093" lon="-2.4292196240"><ele>7.35</ele><time>2015-06-24T11:07:50Z</time></trkpt><trkpt lat="51.7973841727" lon="-2.4292040337"><ele>9.27</ele><time>2015-06-24T11:07:51Z</time></trkpt><trkpt lat="51.7973783892" lon="-2.4291671533"><ele>13.12</ele><time>2015-06-24T11:07:53Z</time></trkpt><trkpt lat="51.7973776348" lon="-2.4291479588"><ele>9.27</ele><time>2015-06-24T11:07:54Z</time></trkpt><trkpt lat="51.7973788083" lon="-2.4291377328"><ele>6.39</ele><time>2015-06-24T11:07:55Z</time></trkpt><trkpt lat="51.7973787244" lon="-2.4291244894"><ele>10.23</ele><time>2015-06-24T11:07:56Z</time></trkpt><trkpt lat="51.7973718513" lon="-2.4290584400"><ele>10.71</ele><time>2015-06-24T11:07:59Z</time></trkpt><trkpt lat="51.7973664030" lon="-2.4290379882"><ele>15.04</ele><time>2015-06-24T11:08:00Z</time></trkpt><trkpt lat="51.7973629665" lon="-2.4290286005"><ele>10.71</ele><time>2015-06-24T11:08:01Z</time></trkpt><trkpt lat="51.7973601166" lon="-2.4290147703"><ele>4.94</ele><time>2015-06-24T11:08:02Z</time></trkpt><trkpt lat="51.7973591946" lon="-2.4289997667"><ele>8.79</ele><time>2015-06-24T11:08:03Z</time></trkpt><trkpt lat="51.7973576020" lon="-2.4289714359"><ele>13.60</ele><time>2015-06-24T11:08:05Z</time></trkpt><trkpt lat="51.7973563448" lon="-2.4289615452"><ele>6.39</ele><time>2015-06-24T11:08:06Z</time></trkpt><trkpt lat="51.7973561771" lon="-2.4289508164"><ele>10.71</ele><time>2015-06-24T11:08:07Z</time></trkpt><trkpt lat="51.7973513994" lon="-2.4289001897"><ele>13.60</ele><time>2015-06-24T11:08:10Z</time></trkpt><trkpt lat="51.7973518185" lon="-2.4288914725"><ele>9.75</ele><time>2015-06-24T11:08:11Z</time></trkpt><trkpt lat="51.7973540816" lon="-2.4288444500"><ele>10.71</ele><time>2015-06-24T11:08:14Z</time></trkpt><trkpt lat="51.7973523214" lon="-2.4287907220"><ele>7.83</ele><time>2015-06-24T11:08:17Z</time></trkpt><trkpt lat="51.7973560095" lon="-2.4287773948"><ele>8.79</ele><time>2015-06-24T11:08:18Z</time></trkpt><trkpt lat="51.7973584402" lon="-2.4287623074"><ele>11.19</ele><time>2015-06-24T11:08:19Z</time></trkpt><trkpt lat="51.7973447777" lon="-2.4286598805"><ele>8.31</ele><time>2015-06-24T11:08:25Z</time></trkpt><trkpt lat="51.7973415088" lon="-2.4286377523"><ele>9.75</ele><time>2015-06-24T11:08:26Z</time></trkpt><trkpt lat="51.7973288521" lon="-2.4285878800"><ele>12.63</ele><time>2015-06-24T11:08:28Z</time></trkpt><trkpt lat="51.7973244935" lon="-2.4285516702"><ele>8.31</ele><time>2015-06-24T11:08:31Z</time></trkpt><trkpt lat="51.7973183747" lon="-2.4285075814"><ele>11.67</ele><time>2015-06-24T11:08:34Z</time></trkpt><trkpt lat="51.7973057181" lon="-2.4284060765"><ele>9.27</ele><time>2015-06-24T11:08:40Z</time></trkpt><trkpt lat="51.7972944025" lon="-2.4283652566"><ele>13.12</ele><time>2015-06-24T11:08:42Z</time></trkpt><trkpt lat="51.7972895410" lon="-2.4283489957"><ele>12.15</ele><time>2015-06-24T11:08:43Z</time></trkpt><trkpt lat="51.7972849309" lon="-2.4283249397"><ele>8.79</ele><time>2015-06-24T11:08:45Z</time></trkpt><trkpt lat="51.7972814944" lon="-2.4282902386"><ele>11.67</ele><time>2015-06-24T11:08:47Z</time></trkpt><trkpt lat="51.7972671613" lon="-2.4282077607"><ele>8.79</ele><time>2015-06-24T11:08:52Z</time></trkpt><trkpt lat="51.7972628865" lon="-2.4281912483"><ele>9.75</ele><time>2015-06-24T11:08:53Z</time></trkpt><trkpt lat="51.7972531635" lon="-2.4281245284"><ele>7.83</ele><time>2015-06-24T11:08:57Z</time></trkpt><trkpt lat="51.7972524092" lon="-2.4281091057"><ele>9.75</ele><time>2015-06-24T11:08:58Z</time></trkpt><trkpt lat="51.7972517386" lon="-2.4280941021"><ele>11.19</ele><time>2015-06-24T11:08:59Z</time></trkpt><trkpt lat="51.7972523253" lon="-2.4280262087"><ele>8.79</ele><time>2015-06-24T11:09:04Z</time></trkpt><trkpt lat="51.7972505651" lon="-2.4280097801"><ele>9.27</ele><time>2015-06-24T11:09:05Z</time></trkpt><trkpt lat="51.7972185463" lon="-2.4278124701"><ele>12.15</ele><time>2015-06-24T11:09:16Z</time></trkpt><trkpt lat="51.7972138524" lon="-2.4277812056"><ele>7.83</ele><time>2015-06-24T11:09:18Z</time></trkpt><trkpt lat="51.7972104996" lon="-2.4277507793"><ele>11.19</ele><time>2015-06-24T11:09:20Z</time></trkpt><trkpt lat="51.7972017825" lon="-2.4277093727"><ele>7.83</ele><time>2015-06-24T11:09:23Z</time></trkpt><trkpt lat="51.7972021177" lon="-2.4276983924"><ele>8.79</ele><time>2015-06-24T11:09:24Z</time></trkpt><trkpt lat="51.7972015310" lon="-2.4276822153"><ele>10.23</ele><time>2015-06-24T11:09:25Z</time></trkpt><trkpt lat="51.7971892096" lon="-2.4276118912"><ele>11.19</ele><time>2015-06-24T11:09:28Z</time></trkpt><trkpt lat="51.7971880361" lon="-2.4275673833"><ele>8.79</ele><time>2015-06-24T11:09:32Z</time></trkpt><trkpt lat="51.7971894611" lon="-2.4275604263"><ele>13.12</ele><time>2015-06-24T11:09:34Z</time></trkpt><trkpt lat="51.7971908860" lon="-2.4275584985"><ele>11.67</ele><time>2015-06-24T11:09:35Z</time></trkpt><trkpt lat="51.7971922271" lon="-2.4275556486"><ele>5.42</ele><time>2015-06-24T11:09:36Z</time></trkpt><trkpt lat="51.7971920595" lon="-2.4275559839"><ele>9.27</ele><time>2015-06-24T11:09:37Z</time></trkpt><trkpt lat="51.7971684225" lon="-2.4275575764"><ele>12.63</ele><time>2015-06-24T11:09:46Z</time></trkpt><trkpt lat="51.7971610464" lon="-2.4275594205"><ele>9.27</ele><time>2015-06-24T11:09:48Z</time></trkpt><trkpt lat="51.7971500661" lon="-2.4274827261"><ele>12.63</ele><time>2015-06-24T11:09:55Z</time></trkpt><trkpt lat="51.7971498985" lon="-2.4274718296"><ele>8.79</ele><time>2015-06-24T11:09:56Z</time></trkpt><trkpt lat="51.7971547600" lon="-2.4273865856"><ele>8.79</ele><time>2015-06-24T11:10:00Z</time></trkpt><trkpt lat="51.7971439473" lon="-2.4272916187"><ele>12.63</ele><time>2015-06-24T11:10:05Z</time></trkpt><trkpt lat="51.7971404269" lon="-2.4272627849"><ele>6.87</ele><time>2015-06-24T11:10:07Z</time></trkpt><trkpt lat="51.7971383315" lon="-2.4272471946"><ele>8.79</ele><time>2015-06-24T11:10:08Z</time></trkpt><trkpt lat="51.7971308716" lon="-2.4272089731"><ele>12.15</ele><time>2015-06-24T11:10:10Z</time></trkpt><trkpt lat="51.7971260939" lon="-2.4271566700"><ele>7.35</ele><time>2015-06-24T11:10:13Z</time></trkpt><trkpt lat="51.7971253395" lon="-2.4271430913"><ele>11.19</ele><time>2015-06-24T11:10:14Z</time></trkpt><trkpt lat="51.7971245851" lon="-2.4271259923"><ele>7.83</ele><time>2015-06-24T11:10:15Z</time></trkpt><trkpt lat="51.7971222382" lon="-2.4270619545"><ele>12.15</ele><time>2015-06-24T11:10:18Z</time></trkpt><trkpt lat="51.7971136887" lon="-2.4270197097"><ele>7.83</ele><time>2015-06-24T11:10:21Z</time></trkpt><trkpt lat="51.7971116770" lon="-2.4269994255"><ele>9.27</ele><time>2015-06-24T11:10:22Z</time></trkpt><trkpt lat="51.7971025407" lon="-2.4269568454"><ele>14.08</ele><time>2015-06-24T11:10:24Z</time></trkpt><trkpt lat="51.7970940750" lon="-2.4269064702"><ele>9.75</ele><time>2015-06-24T11:10:28Z</time></trkpt><trkpt lat="51.7970858607" lon="-2.4268623814"><ele>14.08</ele><time>2015-06-24T11:10:31Z</time></trkpt><trkpt lat="51.7970762216" lon="-2.4268343858"><ele>8.79</ele><time>2015-06-24T11:10:35Z</time></trkpt><trkpt lat="51.7970748805" lon="-2.4268320389"><ele>8.79</ele><time>2015-06-24T11:10:36Z</time></trkpt><trkpt lat="51.7970696837" lon="-2.4268135149"><ele>12.15</ele><time>2015-06-24T11:10:38Z</time></trkpt><trkpt lat="51.7970659956" lon="-2.4267994333"><ele>12.15</ele><time>2015-06-24T11:10:39Z</time></trkpt><trkpt lat="51.7970611341" lon="-2.4267685879"><ele>8.31</ele><time>2015-06-24T11:10:41Z</time></trkpt><trkpt lat="51.7970452923" lon="-2.4267364852"><ele>11.19</ele><time>2015-06-24T11:10:43Z</time></trkpt><trkpt lat="51.7970131058" lon="-2.4266566895"><ele>6.87</ele><time>2015-06-24T11:10:49Z</time></trkpt><trkpt lat="51.7970177159" lon="-2.4266421888"><ele>10.71</ele><time>2015-06-24T11:10:50Z</time></trkpt><trkpt lat="51.7970415205" lon="-2.4265992735"><ele>10.71</ele><time>2015-06-24T11:11:06Z</time></trkpt><trkpt lat="51.7970345635" lon="-2.4266565219"><ele>1.58</ele><time>2015-06-24T11:11:28Z</time></trkpt><trkpt lat="51.7970338091" lon="-2.4266560189"><ele>23.21</ele><time>2015-06-24T11:11:29Z</time></trkpt><trkpt lat="51.7970335577" lon="-2.4266550131"><ele>11.19</ele><time>2015-06-24T11:11:30Z</time></trkpt><trkpt lat="51.7970292829" lon="-2.4266514089"><ele>5.42</ele><time>2015-06-24T11:11:38Z</time></trkpt><trkpt lat="51.7970286123" lon="-2.4266510736"><ele>12.15</ele><time>2015-06-24T11:11:39Z</time></trkpt><trkpt lat="51.7970245052" lon="-2.4266473018"><ele>6.39</ele><time>2015-06-24T11:11:41Z</time></trkpt><trkpt lat="51.7970100045" lon="-2.4266291969"><ele>10.23</ele><time>2015-06-24T11:11:42Z</time></trkpt><trkpt lat="51.7970008682" lon="-2.4266131036"><ele>13.60</ele><time>2015-06-24T11:11:43Z</time></trkpt><trkpt lat="51.7969953362" lon="-2.4265945796"><ele>11.19</ele><time>2015-06-24T11:11:44Z</time></trkpt><trkpt lat="51.7969914805" lon="-2.4265804980"><ele>7.83</ele><time>2015-06-24T11:11:45Z</time></trkpt><trkpt lat="51.7969844397" lon="-2.4265696015"><ele>9.75</ele><time>2015-06-24T11:11:46Z</time></trkpt><trkpt lat="51.7969569471" lon="-2.4265310448"><ele>10.23</ele><time>2015-06-24T11:11:49Z</time></trkpt><trkpt lat="51.7969243415" lon="-2.4264727067"><ele>15.04</ele><time>2015-06-24T11:11:52Z</time></trkpt><trkpt lat="51.7969112657" lon="-2.4264608044"><ele>12.63</ele><time>2015-06-24T11:11:53Z</time></trkpt><trkpt lat="51.7968908977" lon="-2.4264420290"><ele>8.79</ele><time>2015-06-24T11:11:55Z</time></trkpt><trkpt lat="51.7968758941" lon="-2.4264052324"><ele>11.19</ele><time>2015-06-24T11:11:57Z</time></trkpt><trkpt lat="51.7968595494" lon="-2.4263540190"><ele>11.67</ele><time>2015-06-24T11:11:59Z</time></trkpt><trkpt lat="51.7968241777" lon="-2.4262878858"><ele>8.31</ele><time>2015-06-24T11:12:03Z</time></trkpt><trkpt lat="51.7968206573" lon="-2.4262731336"><ele>9.75</ele><time>2015-06-24T11:12:04Z</time></trkpt><trkpt lat="51.7968126107" lon="-2.4262437131"><ele>13.12</ele><time>2015-06-24T11:12:06Z</time></trkpt><trkpt lat="51.7968074977" lon="-2.4262288772"><ele>6.87</ele><time>2015-06-24T11:12:08Z</time></trkpt><trkpt lat="51.7968069110" lon="-2.4262274522"><ele>9.27</ele><time>2015-06-24T11:12:09Z</time></trkpt><trkpt lat="51.7967789993" lon="-2.4261557870"><ele>13.60</ele><time>2015-06-24T11:12:14Z</time></trkpt><trkpt lat="51.7967738025" lon="-2.4261326529"><ele>8.31</ele><time>2015-06-24T11:12:16Z</time></trkpt><trkpt lat="51.7967721261" lon="-2.4261215050"><ele>9.27</ele><time>2015-06-24T11:12:17Z</time></trkpt><trkpt lat="51.7967255227" lon="-2.4259853829"><ele>12.15</ele><time>2015-06-24T11:12:26Z</time></trkpt><trkpt lat="51.7967227567" lon="-2.4259707145"><ele>7.83</ele><time>2015-06-24T11:12:27Z</time></trkpt><trkpt lat="51.7967168055" lon="-2.4259450659"><ele>9.27</ele><time>2015-06-24T11:12:28Z</time></trkpt><trkpt lat="51.7966888938" lon="-2.4258484226"><ele>10.71</ele><time>2015-06-24T11:12:34Z</time></trkpt><trkpt lat="51.7966717947" lon="-2.4257960357"><ele>12.15</ele><time>2015-06-24T11:12:36Z</time></trkpt><trkpt lat="51.7966668494" lon="-2.4257894140"><ele>7.83</ele><time>2015-06-24T11:12:37Z</time></trkpt><trkpt lat="51.7966624070" lon="-2.4257797748"><ele>9.27</ele><time>2015-06-24T11:12:38Z</time></trkpt><trkpt lat="51.7966470681" lon="-2.4257044215"><ele>13.12</ele><time>2015-06-24T11:12:42Z</time></trkpt><trkpt lat="51.7966456432" lon="-2.4256955367"><ele>13.12</ele><time>2015-06-24T11:12:43Z</time></trkpt><trkpt lat="51.7966464814" lon="-2.4256834667"><ele>10.23</ele><time>2015-06-24T11:12:44Z</time></trkpt><trkpt lat="51.7966435477" lon="-2.4256551359"><ele>10.23</ele><time>2015-06-24T11:12:46Z</time></trkpt><trkpt lat="51.7966171447" lon="-2.4256006535"><ele>8.79</ele><time>2015-06-24T11:12:50Z</time></trkpt><trkpt lat="51.7966162227" lon="-2.4255995639"><ele>13.12</ele><time>2015-06-24T11:12:51Z</time></trkpt><trkpt lat="51.7966037337" lon="-2.4255560618"><ele>8.79</ele><time>2015-06-24T11:12:53Z</time></trkpt><trkpt lat="51.7965907417" lon="-2.4255308323"><ele>12.15</ele><time>2015-06-24T11:12:55Z</time></trkpt><trkpt lat="51.7965772469" lon="-2.4254887551"><ele>8.31</ele><time>2015-06-24T11:12:58Z</time></trkpt><trkpt lat="51.7965536937" lon="-2.4254281539"><ele>14.56</ele><time>2015-06-24T11:13:02Z</time></trkpt><trkpt lat="51.7965432163" lon="-2.4253754318"><ele>10.71</ele><time>2015-06-24T11:13:06Z</time></trkpt><trkpt lat="51.7965404503" lon="-2.4253631104"><ele>7.83</ele><time>2015-06-24T11:13:07Z</time></trkpt><trkpt lat="51.7965333257" lon="-2.4253517948"><ele>9.75</ele><time>2015-06-24T11:13:08Z</time></trkpt><trkpt lat="51.7965210881" lon="-2.4253155012"><ele>14.56</ele><time>2015-06-24T11:13:10Z</time></trkpt><trkpt lat="51.7965137120" lon="-2.4252966419"><ele>13.12</ele><time>2015-06-24T11:13:11Z</time></trkpt><trkpt lat="51.7965064198" lon="-2.4252821412"><ele>9.27</ele><time>2015-06-24T11:13:12Z</time></trkpt><trkpt lat="51.7964910809" lon="-2.4252420757"><ele>12.15</ele><time>2015-06-24T11:13:15Z</time></trkpt><trkpt lat="51.7964672763" lon="-2.4251881801"><ele>9.27</ele><time>2015-06-24T11:13:20Z</time></trkpt><trkpt lat="51.7964609060" lon="-2.4251550715"><ele>10.71</ele><time>2015-06-24T11:13:22Z</time></trkpt><trkpt lat="51.7964251153" lon="-2.4250928778"><ele>8.79</ele><time>2015-06-24T11:13:26Z</time></trkpt><trkpt lat="51.7964162305" lon="-2.4250784609"><ele>10.23</ele><time>2015-06-24T11:13:27Z</time></trkpt><trkpt lat="51.7963930126" lon="-2.4250153452"><ele>13.60</ele><time>2015-06-24T11:13:31Z</time></trkpt><trkpt lat="51.7963755783" lon="-2.4249731004"><ele>9.27</ele><time>2015-06-24T11:13:34Z</time></trkpt><trkpt lat="51.7963693757" lon="-2.4249566719"><ele>11.67</ele><time>2015-06-24T11:13:35Z</time></trkpt><trkpt lat="51.7963580601" lon="-2.4248719309"><ele>9.75</ele><time>2015-06-24T11:13:39Z</time></trkpt><trkpt lat="51.7963587306" lon="-2.4248568434"><ele>13.60</ele><time>2015-06-24T11:13:40Z</time></trkpt><trkpt lat="51.7963628378" lon="-2.4248415045"><ele>9.27</ele><time>2015-06-24T11:13:41Z</time></trkpt><trkpt lat="51.7963604908" lon="-2.4248158559"><ele>11.19</ele><time>2015-06-24T11:13:42Z</time></trkpt><trkpt lat="51.7963485885" lon="-2.4247553386"><ele>16.00</ele><time>2015-06-24T11:13:45Z</time></trkpt><trkpt lat="51.7963476665" lon="-2.4247420952"><ele>12.63</ele><time>2015-06-24T11:13:46Z</time></trkpt><trkpt lat="51.7963361833" lon="-2.4247108307"><ele>12.63</ele><time>2015-06-24T11:13:48Z</time></trkpt><trkpt lat="51.7963215988" lon="-2.4246320408"><ele>10.23</ele><time>2015-06-24T11:13:52Z</time></trkpt><trkpt lat="51.7963167373" lon="-2.4246187136"><ele>14.56</ele><time>2015-06-24T11:13:53Z</time></trkpt><trkpt lat="51.7963135522" lon="-2.4246025365"><ele>10.23</ele><time>2015-06-24T11:13:54Z</time></trkpt><trkpt lat="51.7963147257" lon="-2.4245686736"><ele>14.08</ele><time>2015-06-24T11:13:56Z</time></trkpt><trkpt lat="51.7963161506" lon="-2.4245509040"><ele>17.44</ele><time>2015-06-24T11:13:57Z</time></trkpt><trkpt lat="51.7963145580" lon="-2.4245342240"><ele>14.56</ele><time>2015-06-24T11:13:58Z</time></trkpt><trkpt lat="51.7963170726" lon="-2.4245133530"><ele>12.63</ele><time>2015-06-24T11:14:00Z</time></trkpt><trkpt lat="51.7963209283" lon="-2.4245019536"><ele>16.48</ele><time>2015-06-24T11:14:02Z</time></trkpt><trkpt lat="51.7963235267" lon="-2.4244991876"><ele>15.04</ele><time>2015-06-24T11:14:03Z</time></trkpt><trkpt lat="51.7963348422" lon="-2.4244895484"><ele>11.19</ele><time>2015-06-24T11:14:04Z</time></trkpt><trkpt lat="51.7963397037" lon="-2.4244826753"><ele>13.60</ele><time>2015-06-24T11:14:05Z</time></trkpt><trkpt lat="51.7963730637" lon="-2.4244509079"><ele>10.23</ele><time>2015-06-24T11:14:18Z</time></trkpt><trkpt lat="51.7963728961" lon="-2.4244519137"><ele>14.56</ele><time>2015-06-24T11:14:19Z</time></trkpt><trkpt lat="51.7964026518" lon="-2.4244021252"><ele>14.08</ele><time>2015-06-24T11:14:36Z</time></trkpt><trkpt lat="51.7964086030" lon="-2.4243947491"><ele>10.23</ele><time>2015-06-24T11:14:37Z</time></trkpt><trkpt lat="51.7964175716" lon="-2.4243840203"><ele>12.63</ele><time>2015-06-24T11:14:38Z</time></trkpt><trkpt lat="51.7964359280" lon="-2.4243651610"><ele>16.96</ele><time>2015-06-24T11:14:41Z</time></trkpt><trkpt lat="51.7964488361" lon="-2.4243542645"><ele>12.63</ele><time>2015-06-24T11:14:43Z</time></trkpt><trkpt lat="51.7964789271" lon="-2.4243405182"><ele>13.60</ele><time>2015-06-24T11:14:45Z</time></trkpt><trkpt lat="51.7965783365" lon="-2.4242851138"><ele>15.04</ele><time>2015-06-24T11:14:49Z</time></trkpt><trkpt lat="51.7966151331" lon="-2.4242447969"><ele>10.71</ele><time>2015-06-24T11:14:52Z</time></trkpt><trkpt lat="51.7966189887" lon="-2.4242357444"><ele>12.63</ele><time>2015-06-24T11:14:53Z</time></trkpt><trkpt lat="51.7966257781" lon="-2.4242049828"><ele>15.52</ele><time>2015-06-24T11:14:56Z</time></trkpt><trkpt lat="51.7966246884" lon="-2.4241953436"><ele>13.60</ele><time>2015-06-24T11:14:59Z</time></trkpt><trkpt lat="51.7966327351" lon="-2.4241940025"><ele>14.08</ele><time>2015-06-24T11:15:18Z</time></trkpt><trkpt lat="51.7966338247" lon="-2.4241882190"><ele>14.08</ele><time>2015-06-24T11:15:22Z</time></trkpt></trkseg></trk></gpx>